PWSweather.com
Personal Weather Stations
Station Observations
283002842
28300 Mainvilliers, France, MainvilliersFR 28300

28300 Mainvilliers, FranceMainvilliersFR 28300

Lat: 48.4504566, Lon: 1.4527078

Elevation: 156

Station Type: Station météorologique PCE-FWS20

http://meteo28300.fr

Latest ConditionsUpdated 6:49:00 PM GMT+01:01 Tuesday, Aug 21, 2018
Currently Today's Max Today's Min Today's Average
Temperature 77.7°F25.4°C 84.6°F29.2°C 73.8°F23.2°C 80.4°F26.9°C
Dew Point 62.2°F16.8°C 63.9°F17.7°C 57.8°F14.3°C 61.0°F16.1°C
Winds 4.5 mph NW7.2 kmh NW 9.2 mph -14.8 kmh - - 2.8 mph 4.5 kmh
Wind Gusts 7.6 mph12.2 kmh 10.7 mph17.2 kmh - -
Humidity 59% 69% 44% 52%
Pressure 30.09 in1019.0 mb 30.19 in1022.4 mb 30.09 in1019.0 mb -
Hour Temp Dew Point Humidity Winds Wind Gusts Pressure Precip Precip Rate Daily Precip Total
06:49 PM 77.7°F25.4°C 62.2°F16.8°C 59% 4.5 mph NW7.2 kmh NW 7.6 mph12.2 kmh 30.09 in1019.0 mb 0.00 in0.0 mm 0.00 in0.0 mm 0.00 in0.0 mm
06:48 PM 77.9°F25.5°C 62.4°F16.9°C 59% 3.8 mph NW6.1 kmh NW 7.6 mph12.2 kmh 30.09 in1019.0 mb 0.00 in0.0 mm 0.00 in0.0 mm 0.00 in0.0 mm
06:47 PM 77.9°F25.5°C 61.9°F16.6°C 58% 4.5 mph NW7.2 kmh NW 7.6 mph12.2 kmh 30.09 in1019.0 mb 0.00 in0.0 mm 0.00 in0.0 mm 0.00 in0.0 mm
06:46 PM 78.1°F25.6°C 62.1°F16.7°C 58% 6.9 mph NW11.1 kmh NW 7.6 mph12.2 kmh 30.09 in1019.0 mb 0.00 in0.0 mm 0.00 in0.0 mm 0.00 in0.0 mm
06:45 PM 78.1°F25.6°C 62.1°F16.7°C 58% 5.4 mph NW8.7 kmh NW 7.6 mph12.2 kmh 30.09 in1019.0 mb 0.00 in0.0 mm 0.00 in0.0 mm 0.00 in0.0 mm
06:44 PM 78.3°F25.7°C 62.3°F16.8°C 58% 3.1 mph NW5.0 kmh NW 7.6 mph12.2 kmh 30.09 in1019.0 mb 0.00 in0.0 mm 0.00 in0.0 mm 0.00 in0.0 mm
06:43 PM 78.3°F25.7°C 62.8°F17.1°C 59% 3.1 mph NNW5.0 kmh NNW 7.6 mph12.2 kmh 30.09 in1019.0 mb 0.00 in0.0 mm 0.00 in0.0 mm 0.00 in0.0 mm
06:42 PM 78.4°F25.8°C 62.9°F17.2°C 59% 3.1 mph NNW5.0 kmh NNW 7.6 mph12.2 kmh 30.09 in1019.0 mb 0.00 in0.0 mm 0.00 in0.0 mm 0.00 in0.0 mm
06:41 PM 78.4°F25.8°C 62.9°F17.2°C 59% 3.1 mph NNW5.0 kmh NNW 9.8 mph15.8 kmh 30.09 in1019.0 mb 0.00 in0.0 mm 0.00 in0.0 mm 0.00 in0.0 mm
06:40 PM 78.4°F25.8°C 62.9°F17.2°C 59% 4.5 mph NNW7.2 kmh NNW 9.8 mph15.8 kmh 30.09 in1019.0 mb 0.00 in0.0 mm 0.00 in0.0 mm 0.00 in0.0 mm
06:39 PM 78.4°F25.8°C 63.4°F17.4°C 60% 3.1 mph NNW5.0 kmh NNW 9.8 mph15.8 kmh 30.09 in1019.0 mb 0.00 in0.0 mm 0.00 in0.0 mm 0.00 in0.0 mm
06:38 PM 78.4°F25.8°C 63.4°F17.4°C 60% 3.8 mph NNW6.1 kmh NNW 9.8 mph15.8 kmh 30.09 in1019.0 mb 0.00 in0.0 mm 0.00 in0.0 mm 0.00 in0.0 mm
06:37 PM 78.4°F25.8°C 63.9°F17.7°C 61% 2.2 mph NNW3.5 kmh NNW 9.8 mph15.8 kmh 30.09 in1019.0 mb 0.00 in0.0 mm 0.00 in0.0 mm 0.00 in0.0 mm
06:36 PM 78.3°F25.7°C 63.2°F17.3°C 60% 4.5 mph NNW7.2 kmh NNW 9.8 mph15.8 kmh 30.09 in1019.0 mb 0.00 in0.0 mm 0.00 in0.0 mm 0.00 in0.0 mm
06:35 PM 78.1°F25.6°C 63.1°F17.3°C 60% 4.5 mph NNW7.2 kmh NNW 9.8 mph15.8 kmh 30.09 in1019.0 mb 0.00 in0.0 mm 0.00 in0.0 mm 0.00 in0.0 mm
06:34 PM 78.1°F25.6°C 62.6°F17.0°C 59% 5.4 mph NW8.7 kmh NW 9.8 mph15.8 kmh 30.09 in1019.0 mb 0.00 in0.0 mm 0.00 in0.0 mm 0.00 in0.0 mm
06:33 PM 78.1°F25.6°C 62.6°F17.0°C 59% 5.4 mph NW8.7 kmh NW 10.7 mph17.2 kmh 30.09 in1019.0 mb 0.00 in0.0 mm 0.00 in0.0 mm 0.00 in0.0 mm
06:32 PM 78.3°F25.7°C 62.8°F17.1°C 59% 7.6 mph NW12.2 kmh NW 10.7 mph17.2 kmh 30.09 in1019.0 mb 0.00 in0.0 mm 0.00 in0.0 mm 0.00 in0.0 mm
06:31 PM 78.3°F25.7°C 63.2°F17.3°C 60% 3.1 mph NW5.0 kmh NW 10.7 mph17.2 kmh 30.09 in1019.0 mb 0.00 in0.0 mm 0.00 in0.0 mm 0.00 in0.0 mm
06:30 PM 78.3°F25.7°C 62.8°F17.1°C 59% 7.6 mph NW12.2 kmh NW 10.7 mph17.2 kmh 30.10 in1019.3 mb 0.00 in0.0 mm 0.00 in0.0 mm 0.00 in0.0 mm
06:29 PM 78.3°F25.7°C 62.8°F17.1°C 59% 6.0 mph NW9.7 kmh NW 10.7 mph17.2 kmh 30.09 in1019.0 mb 0.00 in0.0 mm 0.00 in0.0 mm 0.00 in0.0 mm
06:28 PM 78.3°F25.7°C 61.8°F16.6°C 57% 3.8 mph NW6.1 kmh NW 10.7 mph17.2 kmh 30.09 in1019.0 mb 0.00 in0.0 mm 0.00 in0.0 mm 0.00 in0.0 mm
06:27 PM 78.3°F25.7°C 61.8°F16.6°C 57% 3.8 mph NW6.1 kmh NW 10.7 mph17.2 kmh 30.09 in1019.0 mb 0.00 in0.0 mm 0.00 in0.0 mm 0.00 in0.0 mm
06:26 PM 78.3°F25.7°C 61.8°F16.6°C 57% 4.5 mph NW7.2 kmh NW 10.7 mph17.2 kmh 30.09 in1019.0 mb 0.00 in0.0 mm 0.00 in0.0 mm 0.00 in0.0 mm
06:25 PM 78.4°F25.8°C 61.9°F16.6°C 57% 8.3 mph NW13.4 kmh NW 10.7 mph17.2 kmh 30.09 in1019.0 mb 0.00 in0.0 mm 0.00 in0.0 mm 0.00 in0.0 mm
06:24 PM 78.6°F25.9°C 61.6°F16.4°C 56% 8.3 mph NW13.4 kmh NW 10.7 mph17.2 kmh 30.09 in1019.0 mb 0.00 in0.0 mm 0.00 in0.0 mm 0.00 in0.0 mm
06:23 PM 78.8°F26.0°C 61.8°F16.6°C 56% 7.6 mph NW12.2 kmh NW 9.2 mph14.8 kmh 30.09 in1019.0 mb 0.00 in0.0 mm 0.00 in0.0 mm 0.00 in0.0 mm
06:22 PM 78.8°F26.0°C 61.3°F16.3°C 55% 6.9 mph NW11.1 kmh NW 9.2 mph14.8 kmh 30.09 in1019.0 mb 0.00 in0.0 mm 0.00 in0.0 mm 0.00 in0.0 mm
06:21 PM 79.0°F26.1°C 61.4°F16.3°C 55% 4.5 mph NW7.2 kmh NW 6.9 mph11.1 kmh 30.09 in1019.0 mb 0.00 in0.0 mm 0.00 in0.0 mm 0.00 in0.0 mm
06:20 PM 79.0°F26.1°C 61.4°F16.3°C 55% 3.8 mph NW6.1 kmh NW 7.6 mph12.2 kmh 30.09 in1019.0 mb 0.00 in0.0 mm 0.00 in0.0 mm 0.00 in0.0 mm
06:19 PM 79.0°F26.1°C 60.9°F16.1°C 54% 6.0 mph NW9.7 kmh NW 7.6 mph12.2 kmh 30.09 in1019.0 mb 0.00 in0.0 mm 0.00 in0.0 mm 0.00 in0.0 mm
06:18 PM 79.0°F26.1°C 60.9°F16.1°C 54% 3.1 mph NW5.0 kmh NW 7.6 mph12.2 kmh 30.09 in1019.0 mb 0.00 in0.0 mm 0.00 in0.0 mm 0.00 in0.0 mm
06:17 PM 79.0°F26.1°C 60.9°F16.1°C 54% 4.5 mph NW7.2 kmh NW 8.3 mph13.4 kmh 30.09 in1019.0 mb 0.00 in0.0 mm 0.00 in0.0 mm 0.00 in0.0 mm
06:16 PM 79.0°F26.1°C 60.9°F16.1°C 54% 4.5 mph NW7.2 kmh NW 8.3 mph13.4 kmh 30.09 in1019.0 mb 0.00 in0.0 mm 0.00 in0.0 mm 0.00 in0.0 mm
06:15 PM 79.0°F26.1°C 61.4°F16.3°C 55% 4.5 mph NW7.2 kmh NW 8.3 mph13.4 kmh 30.09 in1019.0 mb 0.00 in0.0 mm 0.00 in0.0 mm 0.00 in0.0 mm
06:14 PM 79.0°F26.1°C 60.9°F16.1°C 54% 4.5 mph NW7.2 kmh NW 8.3 mph13.4 kmh 30.09 in1019.0 mb 0.00 in0.0 mm 0.00 in0.0 mm 0.00 in0.0 mm
06:13 PM 79.0°F26.1°C 60.9°F16.1°C 54% 4.5 mph NW7.2 kmh NW 8.3 mph13.4 kmh 30.09 in1019.0 mb 0.00 in0.0 mm 0.00 in0.0 mm 0.00 in0.0 mm
06:12 PM 79.0°F26.1°C 60.9°F16.1°C 54% 3.1 mph NW5.0 kmh NW 8.3 mph13.4 kmh 30.09 in1019.0 mb 0.00 in0.0 mm 0.00 in0.0 mm 0.00 in0.0 mm
06:11 PM 79.0°F26.1°C 60.9°F16.1°C 54% 4.5 mph NW7.2 kmh NW 8.3 mph13.4 kmh 30.09 in1019.0 mb 0.00 in0.0 mm 0.00 in0.0 mm 0.00 in0.0 mm
06:10 PM 79.2°F26.2°C 61.1°F16.2°C 54% 5.4 mph NW8.7 kmh NW 8.3 mph13.4 kmh 30.09 in1019.0 mb 0.00 in0.0 mm 0.00 in0.0 mm 0.00 in0.0 mm
06:09 PM 79.2°F26.2°C 61.1°F16.2°C 54% 5.4 mph NW8.7 kmh NW 8.3 mph13.4 kmh 30.09 in1019.0 mb 0.00 in0.0 mm 0.00 in0.0 mm 0.00 in0.0 mm
06:08 PM 79.2°F26.2°C 61.1°F16.2°C 54% 5.4 mph NW8.7 kmh NW 8.3 mph13.4 kmh 30.09 in1019.0 mb 0.00 in0.0 mm 0.00 in0.0 mm 0.00 in0.0 mm
06:07 PM 79.3°F26.3°C 60.7°F15.9°C 53% 6.0 mph NW9.7 kmh NW 8.3 mph13.4 kmh 30.09 in1019.0 mb 0.00 in0.0 mm 0.00 in0.0 mm 0.00 in0.0 mm
06:06 PM 79.3°F26.3°C 60.7°F15.9°C 53% 6.0 mph NW9.7 kmh NW 8.3 mph13.4 kmh 30.09 in1019.0 mb 0.00 in0.0 mm 0.00 in0.0 mm 0.00 in0.0 mm
06:05 PM 79.3°F26.3°C 60.7°F15.9°C 53% 2.2 mph NW3.5 kmh NW 5.4 mph8.7 kmh 30.10 in1019.3 mb 0.00 in0.0 mm 0.00 in0.0 mm 0.00 in0.0 mm
06:04 PM 79.3°F26.3°C 60.7°F15.9°C 53% 4.5 mph NW7.2 kmh NW 5.4 mph8.7 kmh 30.09 in1019.0 mb 0.00 in0.0 mm 0.00 in0.0 mm 0.00 in0.0 mm
06:03 PM 79.3°F26.3°C 60.7°F15.9°C 53% 4.5 mph NW7.2 kmh NW 6.9 mph11.1 kmh 30.09 in1019.0 mb 0.00 in0.0 mm 0.00 in0.0 mm 0.00 in0.0 mm
06:02 PM 79.5°F26.4°C 60.4°F15.8°C 52% 4.5 mph NW7.2 kmh NW 6.9 mph11.1 kmh 30.09 in1019.0 mb 0.00 in0.0 mm 0.00 in0.0 mm 0.00 in0.0 mm
06:01 PM 79.5°F26.4°C 60.4°F15.8°C 52% 3.8 mph NW6.1 kmh NW 6.9 mph11.1 kmh 30.10 in1019.3 mb 0.00 in0.0 mm 0.00 in0.0 mm 0.00 in0.0 mm
06:00 PM 79.5°F26.4°C 60.4°F15.8°C 52% 3.8 mph NW6.1 kmh NW 6.9 mph11.1 kmh 30.09 in1019.0 mb 0.00 in0.0 mm 0.00 in0.0 mm 0.00 in0.0 mm
05:59 PM 79.5°F26.4°C 60.9°F16.1°C 53% 3.1 mph NW5.0 kmh NW 6.9 mph11.1 kmh 30.10 in1019.3 mb 0.00 in0.0 mm 0.00 in0.0 mm 0.00 in0.0 mm
05:58 PM 79.5°F26.4°C 60.9°F16.1°C 53% 2.2 mph NW3.5 kmh NW 6.9 mph11.1 kmh 30.10 in1019.3 mb 0.00 in0.0 mm 0.00 in0.0 mm 0.00 in0.0 mm
05:57 PM 79.5°F26.4°C 60.9°F16.1°C 53% 3.1 mph NW5.0 kmh NW 6.9 mph11.1 kmh 30.10 in1019.3 mb 0.00 in0.0 mm 0.00 in0.0 mm 0.00 in0.0 mm
05:56 PM 79.5°F26.4°C 60.9°F16.1°C 53% 2.2 mph NW3.5 kmh NW 6.9 mph11.1 kmh 30.10 in1019.3 mb 0.00 in0.0 mm 0.00 in0.0 mm 0.00 in0.0 mm
05:55 PM 79.5°F26.4°C 60.9°F16.1°C 53% 4.5 mph NW7.2 kmh NW 6.9 mph11.1 kmh 30.10 in1019.3 mb 0.00 in0.0 mm 0.00 in0.0 mm 0.00 in0.0 mm
05:54 PM 79.5°F26.4°C 60.9°F16.1°C 53% 3.8 mph NW6.1 kmh NW 6.9 mph11.1 kmh 30.10 in1019.3 mb 0.00 in0.0 mm 0.00 in0.0 mm 0.00 in0.0 mm
05:53 PM 79.5°F26.4°C 60.4°F15.8°C 52% 5.4 mph NW8.7 kmh NW 6.9 mph11.1 kmh 30.10 in1019.3 mb 0.00 in0.0 mm 0.00 in0.0 mm 0.00 in0.0 mm
05:52 PM 79.7°F26.5°C 60.5°F15.8°C 52% 5.4 mph NW8.7 kmh NW 6.0 mph9.7 kmh 30.10 in1019.3 mb 0.00 in0.0 mm 0.00 in0.0 mm 0.00 in0.0 mm
05:51 PM 79.9°F26.6°C 60.7°F15.9°C 52% 4.5 mph NW7.2 kmh NW 6.0 mph9.7 kmh 30.10 in1019.3 mb 0.00 in0.0 mm 0.00 in0.0 mm 0.00 in0.0 mm
05:50 PM 80.1°F26.7°C 60.8°F16.0°C 52% 4.5 mph NNW7.2 kmh NNW 6.0 mph9.7 kmh 30.10 in1019.3 mb 0.00 in0.0 mm 0.00 in0.0 mm 0.00 in0.0 mm
05:49 PM 80.2°F26.8°C 61.0°F16.1°C 52% 4.5 mph N7.2 kmh N 6.0 mph9.7 kmh 30.10 in1019.3 mb 0.00 in0.0 mm 0.00 in0.0 mm 0.00 in0.0 mm
05:48 PM 80.4°F26.9°C 61.2°F16.2°C 52% 3.1 mph N5.0 kmh N 5.4 mph8.7 kmh 30.10 in1019.3 mb 0.00 in0.0 mm 0.00 in0.0 mm 0.00 in0.0 mm
05:47 PM 80.4°F26.9°C 61.2°F16.2°C 52% 3.1 mph N5.0 kmh N 5.4 mph8.7 kmh 30.10 in1019.3 mb 0.00 in0.0 mm 0.00 in0.0 mm 0.00 in0.0 mm
05:46 PM 80.4°F26.9°C 61.2°F16.2°C 52% 3.1 mph NNW5.0 kmh NNW 5.4 mph8.7 kmh 30.10 in1019.3 mb 0.00 in0.0 mm 0.00 in0.0 mm 0.00 in0.0 mm
05:45 PM 80.4°F26.9°C 61.2°F16.2°C 52% 2.2 mph N3.5 kmh N 5.4 mph8.7 kmh 30.10 in1019.3 mb 0.00 in0.0 mm 0.00 in0.0 mm 0.00 in0.0 mm
05:44 PM 80.4°F26.9°C 61.2°F16.2°C 52% 1.6 mph N2.6 kmh N 5.4 mph8.7 kmh 30.10 in1019.3 mb 0.00 in0.0 mm 0.00 in0.0 mm 0.00 in0.0 mm
05:43 PM 80.4°F26.9°C 61.2°F16.2°C 52% 2.2 mph N3.5 kmh N 5.4 mph8.7 kmh 30.10 in1019.3 mb 0.00 in0.0 mm 0.00 in0.0 mm 0.00 in0.0 mm
05:42 PM 80.4°F26.9°C 61.2°F16.2°C 52% 1.6 mph N2.6 kmh N 5.4 mph8.7 kmh 30.10 in1019.3 mb 0.00 in0.0 mm 0.00 in0.0 mm 0.00 in0.0 mm
05:41 PM 80.4°F26.9°C 61.2°F16.2°C 52% 0.7 mph NNW1.1 kmh NNW 5.4 mph8.7 kmh 30.10 in1019.3 mb 0.00 in0.0 mm 0.00 in0.0 mm 0.00 in0.0 mm
05:40 PM 80.4°F26.9°C 61.2°F16.2°C 52% 3.8 mph NNW6.1 kmh NNW 5.4 mph8.7 kmh 30.10 in1019.3 mb 0.00 in0.0 mm 0.00 in0.0 mm 0.00 in0.0 mm
05:39 PM 80.6°F27.0°C 61.3°F16.3°C 52% 1.6 mph NNW2.6 kmh NNW 4.5 mph7.2 kmh 30.10 in1019.3 mb 0.00 in0.0 mm 0.00 in0.0 mm 0.00 in0.0 mm
05:38 PM 80.6°F27.0°C 60.8°F16.0°C 51% 1.6 mph NNW2.6 kmh NNW 4.5 mph7.2 kmh 30.10 in1019.3 mb 0.00 in0.0 mm 0.00 in0.0 mm 0.00 in0.0 mm
05:37 PM 80.6°F27.0°C 60.8°F16.0°C 51% 2.2 mph NNW3.5 kmh NNW 4.5 mph7.2 kmh 30.10 in1019.3 mb 0.00 in0.0 mm 0.00 in0.0 mm 0.00 in0.0 mm
05:36 PM 80.6°F27.0°C 60.8°F16.0°C 51% 2.2 mph NNW3.5 kmh NNW 4.5 mph7.2 kmh 30.10 in1019.3 mb 0.00 in0.0 mm 0.00 in0.0 mm 0.00 in0.0 mm
05:35 PM 80.6°F27.0°C 60.8°F16.0°C 51% 1.6 mph NNW2.6 kmh NNW 4.5 mph7.2 kmh 30.10 in1019.3 mb 0.00 in0.0 mm 0.00 in0.0 mm 0.00 in0.0 mm
05:34 PM 80.6°F27.0°C 60.8°F16.0°C 51% 0.7 mph NNW1.1 kmh NNW 4.5 mph7.2 kmh 30.10 in1019.3 mb 0.00 in0.0 mm 0.00 in0.0 mm 0.00 in0.0 mm
05:33 PM 80.6°F27.0°C 60.8°F16.0°C 51% 2.2 mph NNW3.5 kmh NNW 4.5 mph7.2 kmh 30.11 in1019.6 mb 0.00 in0.0 mm 0.00 in0.0 mm 0.00 in0.0 mm
05:32 PM 80.8°F27.1°C 61.0°F16.1°C 51% 3.1 mph NNW5.0 kmh NNW 4.5 mph7.2 kmh 30.10 in1019.3 mb 0.00 in0.0 mm 0.00 in0.0 mm 0.00 in0.0 mm
05:31 PM 80.8°F27.1°C 61.5°F16.4°C 52% 2.2 mph NNW3.5 kmh NNW 4.5 mph7.2 kmh 30.10 in1019.3 mb 0.00 in0.0 mm 0.00 in0.0 mm 0.00 in0.0 mm
05:30 PM 80.6°F27.0°C 61.3°F16.3°C 52% 1.6 mph NNW2.6 kmh NNW 4.5 mph7.2 kmh 30.11 in1019.6 mb 0.00 in0.0 mm 0.00 in0.0 mm 0.00 in0.0 mm
05:29 PM 80.6°F27.0°C 61.3°F16.3°C 52% 0.7 mph NNW1.1 kmh NNW 4.5 mph7.2 kmh 30.10 in1019.3 mb 0.00 in0.0 mm 0.00 in0.0 mm 0.00 in0.0 mm
05:28 PM 80.6°F27.0°C 61.3°F16.3°C 52% Calm Calm 4.5 mph7.2 kmh 30.10 in1019.3 mb 0.00 in0.0 mm 0.00 in0.0 mm 0.00 in0.0 mm
05:27 PM 80.4°F26.9°C 61.2°F16.2°C 52% 0.7 mph NNW1.1 kmh NNW 4.5 mph7.2 kmh 30.10 in1019.3 mb 0.00 in0.0 mm 0.00 in0.0 mm 0.00 in0.0 mm
05:26 PM 80.4°F26.9°C 61.2°F16.2°C 52% 1.6 mph NNW2.6 kmh NNW 4.5 mph7.2 kmh 30.10 in1019.3 mb 0.00 in0.0 mm 0.00 in0.0 mm 0.00 in0.0 mm
05:25 PM 80.4°F26.9°C 61.2°F16.2°C 52% 0.7 mph NNW1.1 kmh NNW 4.5 mph7.2 kmh 30.10 in1019.3 mb 0.00 in0.0 mm 0.00 in0.0 mm 0.00 in0.0 mm
05:24 PM 80.4°F26.9°C 61.2°F16.2°C 52% 3.1 mph NNW5.0 kmh NNW 4.5 mph7.2 kmh 30.10 in1019.3 mb 0.00 in0.0 mm 0.00 in0.0 mm 0.00 in0.0 mm
05:23 PM 80.6°F27.0°C 61.3°F16.3°C 52% 3.8 mph NNW6.1 kmh NNW 4.5 mph7.2 kmh 30.10 in1019.3 mb 0.00 in0.0 mm 0.00 in0.0 mm 0.00 in0.0 mm
05:22 PM 80.6°F27.0°C 61.3°F16.3°C 52% 3.8 mph NNW6.1 kmh NNW 4.5 mph7.2 kmh 30.11 in1019.6 mb 0.00 in0.0 mm 0.00 in0.0 mm 0.00 in0.0 mm
05:21 PM 80.6°F27.0°C 61.3°F16.3°C 52% 2.2 mph NW3.5 kmh NW 3.8 mph6.1 kmh 30.10 in1019.3 mb 0.00 in0.0 mm 0.00 in0.0 mm 0.00 in0.0 mm
05:20 PM 80.6°F27.0°C 61.3°F16.3°C 52% 1.6 mph NW2.6 kmh NW 3.8 mph6.1 kmh 30.10 in1019.3 mb 0.00 in0.0 mm 0.00 in0.0 mm 0.00 in0.0 mm
05:19 PM 80.2°F26.8°C 61.0°F16.1°C 52% Calm Calm 3.8 mph6.1 kmh 30.11 in1019.6 mb 0.00 in0.0 mm 0.00 in0.0 mm 0.00 in0.0 mm
05:18 PM 80.2°F26.8°C 61.0°F16.1°C 52% 0.7 mph NW1.1 kmh NW 5.4 mph8.7 kmh 30.11 in1019.6 mb 0.00 in0.0 mm 0.00 in0.0 mm 0.00 in0.0 mm
05:17 PM 80.1°F26.7°C 60.8°F16.0°C 52% 0.7 mph NW1.1 kmh NW 5.4 mph8.7 kmh 30.10 in1019.3 mb 0.00 in0.0 mm 0.00 in0.0 mm 0.00 in0.0 mm
05:16 PM 80.1°F26.7°C 60.8°F16.0°C 52% 1.6 mph NW2.6 kmh NW 5.4 mph8.7 kmh 30.10 in1019.3 mb 0.00 in0.0 mm 0.00 in0.0 mm 0.00 in0.0 mm
05:15 PM 79.9°F26.6°C 61.2°F16.2°C 53% 2.2 mph NW3.5 kmh NW 5.4 mph8.7 kmh 30.10 in1019.3 mb 0.00 in0.0 mm 0.00 in0.0 mm 0.00 in0.0 mm
05:14 PM 79.7°F26.5°C 61.1°F16.2°C 53% 0.7 mph NW1.1 kmh NW 5.4 mph8.7 kmh 30.11 in1019.6 mb 0.00 in0.0 mm 0.00 in0.0 mm 0.00 in0.0 mm
05:13 PM 79.7°F26.5°C 61.1°F16.2°C 53% 0.7 mph WNW1.1 kmh WNW 5.4 mph8.7 kmh 30.11 in1019.6 mb 0.00 in0.0 mm 0.00 in0.0 mm 0.00 in0.0 mm
05:12 PM 79.7°F26.5°C 61.1°F16.2°C 53% 0.7 mph WNW1.1 kmh WNW 5.4 mph8.7 kmh 30.10 in1019.3 mb 0.00 in0.0 mm 0.00 in0.0 mm 0.00 in0.0 mm
05:11 PM 79.5°F26.4°C 60.4°F15.8°C 52% 3.1 mph WNW5.0 kmh WNW 5.4 mph8.7 kmh 30.11 in1019.6 mb 0.00 in0.0 mm 0.00 in0.0 mm 0.00 in0.0 mm
05:10 PM 79.5°F26.4°C 60.4°F15.8°C 52% 3.1 mph WNW5.0 kmh WNW 5.4 mph8.7 kmh 30.10 in1019.3 mb 0.00 in0.0 mm 0.00 in0.0 mm 0.00 in0.0 mm
05:09 PM 79.7°F26.5°C 60.5°F15.8°C 52% 3.1 mph W5.0 kmh W 5.4 mph8.7 kmh 30.11 in1019.6 mb 0.00 in0.0 mm 0.00 in0.0 mm 0.00 in0.0 mm
05:08 PM 79.7°F26.5°C 60.5°F15.8°C 52% 4.5 mph W7.2 kmh W 5.4 mph8.7 kmh 30.10 in1019.3 mb 0.00 in0.0 mm 0.00 in0.0 mm 0.00 in0.0 mm
05:07 PM 80.1°F26.7°C 60.8°F16.0°C 52% 4.5 mph W7.2 kmh W 5.4 mph8.7 kmh 30.11 in1019.6 mb 0.00 in0.0 mm 0.00 in0.0 mm 0.00 in0.0 mm
05:06 PM 81.3°F27.4°C 61.5°F16.4°C 51% 3.1 mph W5.0 kmh W 4.5 mph7.2 kmh 30.10 in1019.3 mb 0.00 in0.0 mm 0.00 in0.0 mm 0.00 in0.0 mm
05:05 PM 81.3°F27.4°C 61.5°F16.4°C 51% 3.1 mph W5.0 kmh W 4.5 mph7.2 kmh 30.10 in1019.3 mb 0.00 in0.0 mm 0.00 in0.0 mm 0.00 in0.0 mm
05:04 PM 81.3°F27.4°C 61.5°F16.4°C 51% 3.1 mph WNW5.0 kmh WNW 4.5 mph7.2 kmh 30.10 in1019.3 mb 0.00 in0.0 mm 0.00 in0.0 mm 0.00 in0.0 mm
05:03 PM 81.3°F27.4°C 61.5°F16.4°C 51% 3.1 mph WNW5.0 kmh WNW 4.5 mph7.2 kmh 30.10 in1019.3 mb 0.00 in0.0 mm 0.00 in0.0 mm 0.00 in0.0 mm
05:02 PM 81.3°F27.4°C 61.5°F16.4°C 51% 3.1 mph NW5.0 kmh NW 4.5 mph7.2 kmh 30.11 in1019.6 mb 0.00 in0.0 mm 0.00 in0.0 mm 0.00 in0.0 mm
05:01 PM 81.3°F27.4°C 61.5°F16.4°C 51% 3.1 mph NW5.0 kmh NW 4.5 mph7.2 kmh 30.11 in1019.6 mb 0.00 in0.0 mm 0.00 in0.0 mm 0.00 in0.0 mm
05:00 PM 81.3°F27.4°C 61.5°F16.4°C 51% 3.1 mph NW5.0 kmh NW 4.5 mph7.2 kmh 30.11 in1019.6 mb 0.00 in0.0 mm 0.00 in0.0 mm 0.00 in0.0 mm
04:59 PM 81.5°F27.5°C 59.9°F15.5°C 48% 2.2 mph NNW3.5 kmh NNW 3.8 mph6.1 kmh 30.11 in1019.6 mb 0.00 in0.0 mm 0.00 in0.0 mm 0.00 in0.0 mm
04:58 PM 81.5°F27.5°C 60.5°F15.8°C 49% 0.7 mph NNW1.1 kmh NNW 4.5 mph7.2 kmh 30.11 in1019.6 mb 0.00 in0.0 mm 0.00 in0.0 mm 0.00 in0.0 mm
04:57 PM 81.3°F27.4°C 62.0°F16.7°C 52% 0.7 mph NNW1.1 kmh NNW 4.5 mph7.2 kmh 30.10 in1019.3 mb 0.00 in0.0 mm 0.00 in0.0 mm 0.00 in0.0 mm
04:56 PM 81.1°F27.3°C 61.8°F16.6°C 52% 2.2 mph NNW3.5 kmh NNW 5.4 mph8.7 kmh 30.11 in1019.6 mb 0.00 in0.0 mm 0.00 in0.0 mm 0.00 in0.0 mm
04:55 PM 81.0°F27.2°C 61.7°F16.5°C 52% 0.7 mph NW1.1 kmh NW 5.4 mph8.7 kmh 30.11 in1019.6 mb 0.00 in0.0 mm 0.00 in0.0 mm 0.00 in0.0 mm
04:54 PM 81.0°F27.2°C 61.7°F16.5°C 52% 2.2 mph NW3.5 kmh NW 5.4 mph8.7 kmh 30.11 in1019.6 mb 0.00 in0.0 mm 0.00 in0.0 mm 0.00 in0.0 mm
04:53 PM 81.0°F27.2°C 61.7°F16.5°C 52% 1.6 mph NW2.6 kmh NW 5.4 mph8.7 kmh 30.11 in1019.6 mb 0.00 in0.0 mm 0.00 in0.0 mm 0.00 in0.0 mm
04:52 PM 81.0°F27.2°C 61.7°F16.5°C 52% 2.2 mph NW3.5 kmh NW 5.4 mph8.7 kmh 30.11 in1019.6 mb 0.00 in0.0 mm 0.00 in0.0 mm 0.00 in0.0 mm
04:51 PM 81.0°F27.2°C 61.7°F16.5°C 52% 2.2 mph NW3.5 kmh NW 5.4 mph8.7 kmh 30.11 in1019.6 mb 0.00 in0.0 mm 0.00 in0.0 mm 0.00 in0.0 mm
04:50 PM 81.0°F27.2°C 61.7°F16.5°C 52% 1.6 mph NW2.6 kmh NW 5.4 mph8.7 kmh 30.11 in1019.6 mb 0.00 in0.0 mm 0.00 in0.0 mm 0.00 in0.0 mm
04:49 PM 81.1°F27.3°C 61.8°F16.6°C 52% 2.2 mph NW3.5 kmh NW 5.4 mph8.7 kmh 30.11 in1019.6 mb 0.00 in0.0 mm 0.00 in0.0 mm 0.00 in0.0 mm
04:48 PM 81.1°F27.3°C 61.3°F16.3°C 51% 2.2 mph NW3.5 kmh NW 5.4 mph8.7 kmh 30.11 in1019.6 mb 0.00 in0.0 mm 0.00 in0.0 mm 0.00 in0.0 mm
04:47 PM 81.3°F27.4°C 61.5°F16.4°C 51% 3.8 mph NNW6.1 kmh NNW 5.4 mph8.7 kmh 30.11 in1019.6 mb 0.00 in0.0 mm 0.00 in0.0 mm 0.00 in0.0 mm
04:46 PM 81.5°F27.5°C 59.3°F15.2°C 47% 4.5 mph N7.2 kmh N 5.4 mph8.7 kmh 30.11 in1019.6 mb 0.00 in0.0 mm 0.00 in0.0 mm 0.00 in0.0 mm
04:45 PM 81.7°F27.6°C 59.5°F15.3°C 47% 3.8 mph NNE6.1 kmh NNE 4.5 mph7.2 kmh 30.11 in1019.6 mb 0.00 in0.0 mm 0.00 in0.0 mm 0.00 in0.0 mm
04:44 PM 81.9°F27.7°C 59.7°F15.4°C 47% 3.1 mph NNE5.0 kmh NNE 3.8 mph6.1 kmh 30.11 in1019.6 mb 0.00 in0.0 mm 0.00 in0.0 mm 0.00 in0.0 mm
04:43 PM 81.9°F27.7°C 60.2°F15.7°C 48% 0.7 mph NNE1.1 kmh NNE 3.8 mph6.1 kmh 30.11 in1019.6 mb 0.00 in0.0 mm 0.00 in0.0 mm 0.00 in0.0 mm
04:42 PM 81.9°F27.7°C 60.2°F15.7°C 48% 0.7 mph N1.1 kmh N 5.4 mph8.7 kmh 30.11 in1019.6 mb 0.00 in0.0 mm 0.00 in0.0 mm 0.00 in0.0 mm
04:41 PM 81.9°F27.7°C 60.2°F15.7°C 48% 0.7 mph NNW1.1 kmh NNW 5.4 mph8.7 kmh 30.11 in1019.6 mb 0.00 in0.0 mm 0.00 in0.0 mm 0.00 in0.0 mm
04:40 PM 81.7°F27.6°C 60.1°F15.6°C 48% Calm Calm 6.0 mph9.7 kmh 30.11 in1019.6 mb 0.00 in0.0 mm 0.00 in0.0 mm 0.00 in0.0 mm
04:39 PM 81.5°F27.5°C 59.9°F15.5°C 48% 0.7 mph NW1.1 kmh NW 6.0 mph9.7 kmh 30.11 in1019.6 mb 0.00 in0.0 mm 0.00 in0.0 mm 0.00 in0.0 mm
04:38 PM 81.5°F27.5°C 59.9°F15.5°C 48% 0.7 mph NW1.1 kmh NW 6.0 mph9.7 kmh 30.11 in1019.6 mb 0.00 in0.0 mm 0.00 in0.0 mm 0.00 in0.0 mm
04:37 PM 81.3°F27.4°C 61.5°F16.4°C 51% 1.6 mph NW2.6 kmh NW 6.0 mph9.7 kmh 30.11 in1019.6 mb 0.00 in0.0 mm 0.00 in0.0 mm 0.00 in0.0 mm
04:36 PM 81.1°F27.3°C 61.8°F16.6°C 52% 0.7 mph NW1.1 kmh NW 6.0 mph9.7 kmh 30.11 in1019.6 mb 0.00 in0.0 mm 0.00 in0.0 mm 0.00 in0.0 mm
04:35 PM 81.1°F27.3°C 61.8°F16.6°C 52% 2.2 mph NW3.5 kmh NW 6.0 mph9.7 kmh 30.11 in1019.6 mb 0.00 in0.0 mm 0.00 in0.0 mm 0.00 in0.0 mm
04:34 PM 81.1°F27.3°C 61.8°F16.6°C 52% 2.2 mph NW3.5 kmh NW 6.0 mph9.7 kmh 30.11 in1019.6 mb 0.00 in0.0 mm 0.00 in0.0 mm 0.00 in0.0 mm
04:33 PM 81.1°F27.3°C 61.8°F16.6°C 52% 2.2 mph NW3.5 kmh NW 6.0 mph9.7 kmh 30.11 in1019.6 mb 0.00 in0.0 mm 0.00 in0.0 mm 0.00 in0.0 mm
04:32 PM 81.3°F27.4°C 62.0°F16.7°C 52% 4.5 mph NW7.2 kmh NW 6.0 mph9.7 kmh 30.11 in1019.6 mb 0.00 in0.0 mm 0.00 in0.0 mm 0.00 in0.0 mm
04:31 PM 81.3°F27.4°C 62.0°F16.7°C 52% 3.8 mph NW6.1 kmh NW 6.0 mph9.7 kmh 30.11 in1019.6 mb 0.00 in0.0 mm 0.00 in0.0 mm 0.00 in0.0 mm
04:30 PM 81.5°F27.5°C 59.9°F15.5°C 48% 4.5 mph NW7.2 kmh NW 6.0 mph9.7 kmh 30.11 in1019.6 mb 0.00 in0.0 mm 0.00 in0.0 mm 0.00 in0.0 mm
04:29 PM 81.5°F27.5°C 59.9°F15.5°C 48% 3.1 mph NW5.0 kmh NW 5.4 mph8.7 kmh 30.11 in1019.6 mb 0.00 in0.0 mm 0.00 in0.0 mm 0.00 in0.0 mm
04:28 PM 81.5°F27.5°C 59.9°F15.5°C 48% 2.2 mph NW3.5 kmh NW 5.4 mph8.7 kmh 30.11 in1019.6 mb 0.00 in0.0 mm 0.00 in0.0 mm 0.00 in0.0 mm
04:27 PM 81.3°F27.4°C 61.5°F16.4°C 51% 1.6 mph NW2.6 kmh NW 5.4 mph8.7 kmh 30.11 in1019.6 mb 0.00 in0.0 mm 0.00 in0.0 mm 0.00 in0.0 mm
04:26 PM 81.3°F27.4°C 61.5°F16.4°C 51% 2.2 mph NW3.5 kmh NW 5.4 mph8.7 kmh 30.11 in1019.6 mb 0.00 in0.0 mm 0.00 in0.0 mm 0.00 in0.0 mm
04:25 PM 81.3°F27.4°C 61.5°F16.4°C 51% 3.1 mph NW5.0 kmh NW 5.4 mph8.7 kmh 30.11 in1019.6 mb 0.00 in0.0 mm 0.00 in0.0 mm 0.00 in0.0 mm
04:24 PM 81.5°F27.5°C 59.3°F15.2°C 47% 3.1 mph NW5.0 kmh NW 5.4 mph8.7 kmh 30.11 in1019.6 mb 0.00 in0.0 mm 0.00 in0.0 mm 0.00 in0.0 mm
04:23 PM 81.9°F27.7°C 59.7°F15.4°C 47% 4.5 mph NW7.2 kmh NW 5.4 mph8.7 kmh 30.11 in1019.6 mb 0.00 in0.0 mm 0.00 in0.0 mm 0.00 in0.0 mm
04:22 PM 81.9°F27.7°C 59.1°F15.1°C 46% 3.1 mph NW5.0 kmh NW 4.5 mph7.2 kmh 30.11 in1019.6 mb 0.00 in0.0 mm 0.00 in0.0 mm 0.00 in0.0 mm
04:21 PM 82.0°F27.8°C 59.2°F15.1°C 46% 2.2 mph NW3.5 kmh NW 4.5 mph7.2 kmh 30.11 in1019.6 mb 0.00 in0.0 mm 0.00 in0.0 mm 0.00 in0.0 mm
04:20 PM 82.2°F27.9°C 59.4°F15.2°C 46% 2.2 mph NW3.5 kmh NW 4.5 mph7.2 kmh 30.11 in1019.6 mb 0.00 in0.0 mm 0.00 in0.0 mm 0.00 in0.0 mm
04:19 PM 82.2°F27.9°C 59.4°F15.2°C 46% 2.2 mph NW3.5 kmh NW 5.4 mph8.7 kmh 30.11 in1019.6 mb 0.00 in0.0 mm 0.00 in0.0 mm 0.00 in0.0 mm
04:18 PM 82.4°F28.0°C 59.5°F15.3°C 46% 3.1 mph NW5.0 kmh NW 5.4 mph8.7 kmh 30.11 in1019.6 mb 0.00 in0.0 mm 0.00 in0.0 mm 0.00 in0.0 mm
04:17 PM 82.4°F28.0°C 59.5°F15.3°C 46% 2.2 mph NW3.5 kmh NW 5.4 mph8.7 kmh 30.11 in1019.6 mb 0.00 in0.0 mm 0.00 in0.0 mm 0.00 in0.0 mm
04:16 PM 82.4°F28.0°C 59.5°F15.3°C 46% 2.2 mph NW3.5 kmh NW 5.4 mph8.7 kmh 30.11 in1019.6 mb 0.00 in0.0 mm 0.00 in0.0 mm 0.00 in0.0 mm
04:15 PM 82.4°F28.0°C 59.5°F15.3°C 46% 2.2 mph NW3.5 kmh NW 6.9 mph11.1 kmh 30.12 in1020.0 mb 0.00 in0.0 mm 0.00 in0.0 mm 0.00 in0.0 mm
04:14 PM 82.4°F28.0°C 59.5°F15.3°C 46% 3.1 mph WNW5.0 kmh WNW 6.9 mph11.1 kmh 30.11 in1019.6 mb 0.00 in0.0 mm 0.00 in0.0 mm 0.00 in0.0 mm
04:13 PM 82.4°F28.0°C 59.5°F15.3°C 46% 2.2 mph NW3.5 kmh NW 6.9 mph11.1 kmh 30.11 in1019.6 mb 0.00 in0.0 mm 0.00 in0.0 mm 0.00 in0.0 mm
04:12 PM 82.4°F28.0°C 59.5°F15.3°C 46% 2.2 mph WNW3.5 kmh WNW 6.9 mph11.1 kmh 30.11 in1019.6 mb 0.00 in0.0 mm 0.00 in0.0 mm 0.00 in0.0 mm
04:11 PM 82.4°F28.0°C 59.5°F15.3°C 46% 2.2 mph WNW3.5 kmh WNW 6.9 mph11.1 kmh 30.11 in1019.6 mb 0.00 in0.0 mm 0.00 in0.0 mm 0.00 in0.0 mm
04:10 PM 82.4°F28.0°C 60.1°F15.6°C 47% 2.2 mph WNW3.5 kmh WNW 6.9 mph11.1 kmh 30.11 in1019.6 mb 0.00 in0.0 mm 0.00 in0.0 mm 0.00 in0.0 mm
04:09 PM 82.4°F28.0°C 59.5°F15.3°C 46% 3.1 mph WNW5.0 kmh WNW 6.9 mph11.1 kmh 30.12 in1020.0 mb 0.00 in0.0 mm 0.00 in0.0 mm 0.00 in0.0 mm
04:08 PM 82.4°F28.0°C 59.5°F15.3°C 46% 3.1 mph WNW5.0 kmh WNW 6.9 mph11.1 kmh 30.11 in1019.6 mb 0.00 in0.0 mm 0.00 in0.0 mm 0.00 in0.0 mm
04:07 PM 82.6°F28.1°C 59.7°F15.4°C 46% 4.5 mph WNW7.2 kmh WNW 6.9 mph11.1 kmh 30.11 in1019.6 mb 0.00 in0.0 mm 0.00 in0.0 mm 0.00 in0.0 mm
04:06 PM 82.6°F28.1°C 59.7°F15.4°C 46% 4.5 mph WNW7.2 kmh WNW 6.9 mph11.1 kmh 30.12 in1020.0 mb 0.00 in0.0 mm 0.00 in0.0 mm 0.00 in0.0 mm
04:05 PM 82.6°F28.1°C 60.3°F15.7°C 47% 5.4 mph NW8.7 kmh NW 7.6 mph12.2 kmh 30.12 in1020.0 mb 0.00 in0.0 mm 0.00 in0.0 mm 0.00 in0.0 mm
04:04 PM 82.6°F28.1°C 60.3°F15.7°C 47% 6.0 mph NW9.7 kmh NW 7.6 mph12.2 kmh 30.12 in1020.0 mb 0.00 in0.0 mm 0.00 in0.0 mm 0.00 in0.0 mm
04:03 PM 82.6°F28.1°C 59.7°F15.4°C 46% 6.0 mph WNW9.7 kmh WNW 7.6 mph12.2 kmh 30.12 in1020.0 mb 0.00 in0.0 mm 0.00 in0.0 mm 0.00 in0.0 mm
04:02 PM 82.6°F28.1°C 59.7°F15.4°C 46% 4.5 mph NW7.2 kmh NW 7.6 mph12.2 kmh 30.12 in1020.0 mb 0.00 in0.0 mm 0.00 in0.0 mm 0.00 in0.0 mm
04:01 PM 82.6°F28.1°C 59.7°F15.4°C 46% 3.8 mph NW6.1 kmh NW 7.6 mph12.2 kmh 30.11 in1019.6 mb 0.00 in0.0 mm 0.00 in0.0 mm 0.00 in0.0 mm
04:00 PM 82.6°F28.1°C 59.7°F15.4°C 46% 6.0 mph NW9.7 kmh NW 10.7 mph17.2 kmh 30.12 in1020.0 mb 0.00 in0.0 mm 0.00 in0.0 mm 0.00 in0.0 mm
03:59 PM 82.8°F28.2°C 59.9°F15.5°C 46% 6.0 mph NW9.7 kmh NW 10.7 mph17.2 kmh 30.12 in1020.0 mb 0.00 in0.0 mm 0.00 in0.0 mm 0.00 in0.0 mm
03:58 PM 82.8°F28.2°C 59.9°F15.5°C 46% 2.2 mph NW3.5 kmh NW 10.7 mph17.2 kmh 30.12 in1020.0 mb 0.00 in0.0 mm 0.00 in0.0 mm 0.00 in0.0 mm
03:57 PM 82.6°F28.1°C 59.7°F15.4°C 46% 3.1 mph WNW5.0 kmh WNW 10.7 mph17.2 kmh 30.12 in1020.0 mb 0.00 in0.0 mm 0.00 in0.0 mm 0.00 in0.0 mm
03:56 PM 82.4°F28.0°C 59.5°F15.3°C 46% 6.0 mph WNW9.7 kmh WNW 10.7 mph17.2 kmh 30.12 in1020.0 mb 0.00 in0.0 mm 0.00 in0.0 mm 0.00 in0.0 mm
03:55 PM 82.4°F28.0°C 60.1°F15.6°C 47% 6.0 mph WNW9.7 kmh WNW 10.7 mph17.2 kmh 30.12 in1020.0 mb 0.00 in0.0 mm 0.00 in0.0 mm 0.00 in0.0 mm
03:54 PM 82.2°F27.9°C 60.0°F15.6°C 47% 3.1 mph WNW5.0 kmh WNW 10.7 mph17.2 kmh 30.12 in1020.0 mb 0.00 in0.0 mm 0.00 in0.0 mm 0.00 in0.0 mm
03:53 PM 82.0°F27.8°C 59.8°F15.4°C 47% 5.4 mph W8.7 kmh W 10.7 mph17.2 kmh 30.12 in1020.0 mb 0.00 in0.0 mm 0.00 in0.0 mm 0.00 in0.0 mm
03:52 PM 81.5°F27.5°C 60.5°F15.8°C 49% 3.8 mph W6.1 kmh W 10.7 mph17.2 kmh 30.12 in1020.0 mb 0.00 in0.0 mm 0.00 in0.0 mm 0.00 in0.0 mm
03:51 PM 81.3°F27.4°C 62.0°F16.7°C 52% 6.0 mph W9.7 kmh W 10.7 mph17.2 kmh 30.12 in1020.0 mb 0.00 in0.0 mm 0.00 in0.0 mm 0.00 in0.0 mm
03:50 PM 81.3°F27.4°C 62.0°F16.7°C 52% 6.9 mph W11.1 kmh W 10.7 mph17.2 kmh 30.13 in1020.3 mb 0.00 in0.0 mm 0.00 in0.0 mm 0.00 in0.0 mm
03:49 PM 81.5°F27.5°C 59.9°F15.5°C 48% 6.9 mph WNW11.1 kmh WNW 10.7 mph17.2 kmh 30.12 in1020.0 mb 0.00 in0.0 mm 0.00 in0.0 mm 0.00 in0.0 mm
03:48 PM 81.7°F27.6°C 60.7°F15.9°C 49% 4.5 mph W7.2 kmh W 6.9 mph11.1 kmh 30.12 in1020.0 mb 0.00 in0.0 mm 0.00 in0.0 mm 0.00 in0.0 mm
03:47 PM 81.7°F27.6°C 60.7°F15.9°C 49% 4.5 mph WNW7.2 kmh WNW 6.9 mph11.1 kmh 30.12 in1020.0 mb 0.00 in0.0 mm 0.00 in0.0 mm 0.00 in0.0 mm
03:46 PM 81.5°F27.5°C 60.5°F15.8°C 49% 2.2 mph WNW3.5 kmh WNW 6.9 mph11.1 kmh 30.12 in1020.0 mb 0.00 in0.0 mm 0.00 in0.0 mm 0.00 in0.0 mm
03:45 PM 81.3°F27.4°C 62.0°F16.7°C 52% 2.2 mph WNW3.5 kmh WNW 6.9 mph11.1 kmh 30.13 in1020.3 mb 0.00 in0.0 mm 0.00 in0.0 mm 0.00 in0.0 mm
03:44 PM 81.0°F27.2°C 62.2°F16.8°C 53% 2.2 mph WNW3.5 kmh WNW 6.9 mph11.1 kmh 30.12 in1020.0 mb 0.00 in0.0 mm 0.00 in0.0 mm 0.00 in0.0 mm
03:43 PM 80.8°F27.1°C 62.1°F16.7°C 53% 3.1 mph WNW5.0 kmh WNW 9.8 mph15.8 kmh 30.12 in1020.0 mb 0.00 in0.0 mm 0.00 in0.0 mm 0.00 in0.0 mm
03:42 PM 80.4°F26.9°C 61.7°F16.5°C 53% 3.8 mph WNW6.1 kmh WNW 9.8 mph15.8 kmh 30.13 in1020.3 mb 0.00 in0.0 mm 0.00 in0.0 mm 0.00 in0.0 mm
03:41 PM 80.4°F26.9°C 61.7°F16.5°C 53% 6.0 mph WNW9.7 kmh WNW 10.7 mph17.2 kmh 30.12 in1020.0 mb 0.00 in0.0 mm 0.00 in0.0 mm 0.00 in0.0 mm
03:40 PM 79.9°F26.6°C 61.7°F16.5°C 54% 3.1 mph W5.0 kmh W 10.7 mph17.2 kmh 30.13 in1020.3 mb 0.00 in0.0 mm 0.00 in0.0 mm 0.00 in0.0 mm
03:39 PM 79.7°F26.5°C 61.6°F16.4°C 54% 3.1 mph W5.0 kmh W 10.7 mph17.2 kmh 30.13 in1020.3 mb 0.00 in0.0 mm 0.00 in0.0 mm 0.00 in0.0 mm
03:38 PM 79.5°F26.4°C 61.4°F16.3°C 54% 4.5 mph WNW7.2 kmh WNW 10.7 mph17.2 kmh 30.12 in1020.0 mb 0.00 in0.0 mm 0.00 in0.0 mm 0.00 in0.0 mm
03:37 PM 79.3°F26.3°C 61.2°F16.2°C 54% 3.8 mph WNW6.1 kmh WNW 10.7 mph17.2 kmh 30.12 in1020.0 mb 0.00 in0.0 mm 0.00 in0.0 mm 0.00 in0.0 mm
03:36 PM 79.0°F26.1°C 60.9°F16.1°C 54% 3.8 mph WNW6.1 kmh WNW 10.7 mph17.2 kmh 30.12 in1020.0 mb 0.00 in0.0 mm 0.00 in0.0 mm 0.00 in0.0 mm
03:35 PM 78.8°F26.0°C 60.7°F15.9°C 54% 4.5 mph W7.2 kmh W 10.7 mph17.2 kmh 30.13 in1020.3 mb 0.00 in0.0 mm 0.00 in0.0 mm 0.00 in0.0 mm
03:34 PM 78.6°F25.9°C 60.6°F15.9°C 54% 5.4 mph W8.7 kmh W 10.7 mph17.2 kmh 30.12 in1020.0 mb 0.00 in0.0 mm 0.00 in0.0 mm 0.00 in0.0 mm
03:33 PM 78.6°F25.9°C 60.6°F15.9°C 54% 9.2 mph W14.8 kmh W 10.7 mph17.2 kmh 30.13 in1020.3 mb 0.00 in0.0 mm 0.00 in0.0 mm 0.00 in0.0 mm
03:32 PM 78.8°F26.0°C 60.7°F15.9°C 54% 9.2 mph W14.8 kmh W 10.7 mph17.2 kmh 30.13 in1020.3 mb 0.00 in0.0 mm 0.00 in0.0 mm 0.00 in0.0 mm
03:31 PM 79.0°F26.1°C 60.9°F16.1°C 54% 9.2 mph W14.8 kmh W 10.7 mph17.2 kmh 30.13 in1020.3 mb 0.00 in0.0 mm 0.00 in0.0 mm 0.00 in0.0 mm
03:30 PM 79.2°F26.2°C 61.1°F16.2°C 54% 9.2 mph W14.8 kmh W 10.7 mph17.2 kmh 30.13 in1020.3 mb 0.00 in0.0 mm 0.00 in0.0 mm 0.00 in0.0 mm
03:29 PM 79.3°F26.3°C 61.2°F16.2°C 54% 7.6 mph W12.2 kmh W 10.7 mph17.2 kmh 30.13 in1020.3 mb 0.00 in0.0 mm 0.00 in0.0 mm 0.00 in0.0 mm
03:28 PM 79.7°F26.5°C 61.1°F16.2°C 53% 9.2 mph W14.8 kmh W 10.7 mph17.2 kmh 30.13 in1020.3 mb 0.00 in0.0 mm 0.00 in0.0 mm 0.00 in0.0 mm
03:27 PM 79.9°F26.6°C 61.7°F16.5°C 54% 8.3 mph W13.4 kmh W 10.7 mph17.2 kmh 30.13 in1020.3 mb 0.00 in0.0 mm 0.00 in0.0 mm 0.00 in0.0 mm
03:26 PM 79.9°F26.6°C 61.7°F16.5°C 54% 4.5 mph W7.2 kmh W 10.7 mph17.2 kmh 30.13 in1020.3 mb 0.00 in0.0 mm 0.00 in0.0 mm 0.00 in0.0 mm
03:25 PM 79.7°F26.5°C 61.6°F16.4°C 54% 4.5 mph W7.2 kmh W 10.7 mph17.2 kmh 30.13 in1020.3 mb 0.00 in0.0 mm 0.00 in0.0 mm 0.00 in0.0 mm
03:24 PM 79.7°F26.5°C 61.6°F16.4°C 54% 4.5 mph W7.2 kmh W 10.7 mph17.2 kmh 30.13 in1020.3 mb 0.00 in0.0 mm 0.00 in0.0 mm 0.00 in0.0 mm
03:23 PM 79.7°F26.5°C 61.6°F16.4°C 54% 3.1 mph W5.0 kmh W 10.7 mph17.2 kmh 30.13 in1020.3 mb 0.00 in0.0 mm 0.00 in0.0 mm 0.00 in0.0 mm
03:22 PM 79.5°F26.4°C 61.4°F16.3°C 54% 3.1 mph WNW5.0 kmh WNW 10.7 mph17.2 kmh 30.13 in1020.3 mb 0.00 in0.0 mm 0.00 in0.0 mm 0.00 in0.0 mm
03:21 PM 79.5°F26.4°C 61.4°F16.3°C 54% 5.4 mph WNW8.7 kmh WNW 10.7 mph17.2 kmh 30.13 in1020.3 mb 0.00 in0.0 mm 0.00 in0.0 mm 0.00 in0.0 mm
03:20 PM 79.9°F26.6°C 61.2°F16.2°C 53% 5.4 mph WNW8.7 kmh WNW 10.7 mph17.2 kmh 30.13 in1020.3 mb 0.00 in0.0 mm 0.00 in0.0 mm 0.00 in0.0 mm
03:19 PM 79.9°F26.6°C 61.2°F16.2°C 53% 9.2 mph WNW14.8 kmh WNW 10.7 mph17.2 kmh 30.13 in1020.3 mb 0.00 in0.0 mm 0.00 in0.0 mm 0.00 in0.0 mm
03:18 PM 80.1°F26.7°C 61.4°F16.3°C 53% 8.3 mph WNW13.4 kmh WNW 10.7 mph17.2 kmh 30.13 in1020.3 mb 0.00 in0.0 mm 0.00 in0.0 mm 0.00 in0.0 mm
03:17 PM 80.2°F26.8°C 61.0°F16.1°C 52% 8.3 mph NW13.4 kmh NW 9.8 mph15.8 kmh 30.13 in1020.3 mb 0.00 in0.0 mm 0.00 in0.0 mm 0.00 in0.0 mm
03:16 PM 80.6°F27.0°C 61.3°F16.3°C 52% 4.5 mph NW7.2 kmh NW 7.6 mph12.2 kmh 30.13 in1020.3 mb 0.00 in0.0 mm 0.00 in0.0 mm 0.00 in0.0 mm
03:15 PM 80.6°F27.0°C 60.8°F16.0°C 51% 3.8 mph NW6.1 kmh NW 7.6 mph12.2 kmh 30.13 in1020.3 mb 0.00 in0.0 mm 0.00 in0.0 mm 0.00 in0.0 mm
03:14 PM 80.6°F27.0°C 60.8°F16.0°C 51% 5.4 mph WNW8.7 kmh WNW 7.6 mph12.2 kmh 30.13 in1020.3 mb 0.00 in0.0 mm 0.00 in0.0 mm 0.00 in0.0 mm
03:13 PM 80.6°F27.0°C 60.8°F16.0°C 51% 5.4 mph WNW8.7 kmh WNW 7.6 mph12.2 kmh 30.13 in1020.3 mb 0.00 in0.0 mm 0.00 in0.0 mm 0.00 in0.0 mm
03:12 PM 80.8°F27.1°C 61.0°F16.1°C 51% 3.8 mph W6.1 kmh W 6.9 mph11.1 kmh 30.13 in1020.3 mb 0.00 in0.0 mm 0.00 in0.0 mm 0.00 in0.0 mm
03:11 PM 80.8°F27.1°C 61.0°F16.1°C 51% 2.2 mph W3.5 kmh W 6.9 mph11.1 kmh 30.13 in1020.3 mb 0.00 in0.0 mm 0.00 in0.0 mm 0.00 in0.0 mm
03:10 PM 80.8°F27.1°C 61.0°F16.1°C 51% 6.0 mph W9.7 kmh W 6.9 mph11.1 kmh 30.12 in1020.0 mb 0.00 in0.0 mm 0.00 in0.0 mm 0.00 in0.0 mm
03:09 PM 80.8°F27.1°C 61.0°F16.1°C 51% 5.4 mph W8.7 kmh W 6.9 mph11.1 kmh 30.13 in1020.3 mb 0.00 in0.0 mm 0.00 in0.0 mm 0.00 in0.0 mm
03:08 PM 80.6°F27.0°C 60.8°F16.0°C 51% 1.6 mph W2.6 kmh W 6.9 mph11.1 kmh 30.13 in1020.3 mb 0.00 in0.0 mm 0.00 in0.0 mm 0.00 in0.0 mm
03:07 PM 80.4°F26.9°C 60.6°F15.9°C 51% 1.6 mph W2.6 kmh W 6.9 mph11.1 kmh 30.13 in1020.3 mb 0.00 in0.0 mm 0.00 in0.0 mm 0.00 in0.0 mm
03:06 PM 81.0°F27.2°C 60.6°F15.9°C 50% 5.4 mph W8.7 kmh W 6.9 mph11.1 kmh 30.14 in1020.7 mb 0.00 in0.0 mm 0.00 in0.0 mm 0.00 in0.0 mm
03:05 PM 81.0°F27.2°C 60.6°F15.9°C 50% 5.4 mph W8.7 kmh W 6.9 mph11.1 kmh 30.13 in1020.3 mb 0.00 in0.0 mm 0.00 in0.0 mm 0.00 in0.0 mm
03:04 PM 81.0°F27.2°C 60.6°F15.9°C 50% 5.4 mph WNW8.7 kmh WNW 6.9 mph11.1 kmh 30.13 in1020.3 mb 0.00 in0.0 mm 0.00 in0.0 mm 0.00 in0.0 mm
03:03 PM 81.0°F27.2°C 60.6°F15.9°C 50% 5.4 mph WNW8.7 kmh WNW 6.9 mph11.1 kmh 30.13 in1020.3 mb 0.00 in0.0 mm 0.00 in0.0 mm 0.00 in0.0 mm
03:02 PM 81.0°F27.2°C 60.6°F15.9°C 50% 5.4 mph WNW8.7 kmh WNW 6.9 mph11.1 kmh 30.13 in1020.3 mb 0.00 in0.0 mm 0.00 in0.0 mm 0.00 in0.0 mm
03:01 PM 81.0°F27.2°C 60.6°F15.9°C 50% 5.4 mph WNW8.7 kmh WNW 6.9 mph11.1 kmh 30.14 in1020.7 mb 0.00 in0.0 mm 0.00 in0.0 mm 0.00 in0.0 mm
03:00 PM 81.1°F27.3°C 60.7°F15.9°C 50% 5.4 mph NW8.7 kmh NW 6.0 mph9.7 kmh 30.13 in1020.3 mb 0.00 in0.0 mm 0.00 in0.0 mm 0.00 in0.0 mm
02:59 PM 81.3°F27.4°C 60.9°F16.1°C 50% 4.5 mph NW7.2 kmh NW 6.0 mph9.7 kmh 30.13 in1020.3 mb 0.00 in0.0 mm 0.00 in0.0 mm 0.00 in0.0 mm
02:58 PM 81.7°F27.6°C 58.3°F14.6°C 45% 3.8 mph NW6.1 kmh NW 6.0 mph9.7 kmh 30.13 in1020.3 mb 0.00 in0.0 mm 0.00 in0.0 mm 0.00 in0.0 mm
02:57 PM 81.9°F27.7°C 57.8°F14.3°C 44% 5.4 mph NW8.7 kmh NW 6.0 mph9.7 kmh 30.13 in1020.3 mb 0.00 in0.0 mm 0.00 in0.0 mm 0.00 in0.0 mm
02:56 PM 82.2°F27.9°C 58.8°F14.9°C 45% 3.8 mph NW6.1 kmh NW 6.0 mph9.7 kmh 30.13 in1020.3 mb 0.00 in0.0 mm 0.00 in0.0 mm 0.00 in0.0 mm
02:55 PM 82.2°F27.9°C 58.8°F14.9°C 45% 3.1 mph NW5.0 kmh NW 6.0 mph9.7 kmh 30.13 in1020.3 mb 0.00 in0.0 mm 0.00 in0.0 mm 0.00 in0.0 mm
02:54 PM 82.2°F27.9°C 58.8°F14.9°C 45% 3.8 mph NW6.1 kmh NW 6.0 mph9.7 kmh 30.13 in1020.3 mb 0.00 in0.0 mm 0.00 in0.0 mm 0.00 in0.0 mm
02:53 PM 82.2°F27.9°C 58.8°F14.9°C 45% 1.6 mph NW2.6 kmh NW 6.0 mph9.7 kmh 30.13 in1020.3 mb 0.00 in0.0 mm 0.00 in0.0 mm 0.00 in0.0 mm
02:52 PM 82.0°F27.8°C 58.6°F14.8°C 45% 1.6 mph NW2.6 kmh NW 6.0 mph9.7 kmh 30.14 in1020.7 mb 0.00 in0.0 mm 0.00 in0.0 mm 0.00 in0.0 mm
02:51 PM 82.0°F27.8°C 58.6°F14.8°C 45% 3.1 mph NW5.0 kmh NW 6.0 mph9.7 kmh 30.13 in1020.3 mb 0.00 in0.0 mm 0.00 in0.0 mm 0.00 in0.0 mm
02:50 PM 82.2°F27.9°C 58.1°F14.5°C 44% 3.1 mph NW5.0 kmh NW 6.0 mph9.7 kmh 30.13 in1020.3 mb 0.00 in0.0 mm 0.00 in0.0 mm 0.00 in0.0 mm
02:49 PM 82.4°F28.0°C 58.3°F14.6°C 44% 3.8 mph NW6.1 kmh NW 6.0 mph9.7 kmh 30.13 in1020.3 mb 0.00 in0.0 mm 0.00 in0.0 mm 0.00 in0.0 mm
02:48 PM 82.6°F28.1°C 58.5°F14.7°C 44% 3.1 mph NNW5.0 kmh NNW 6.9 mph11.1 kmh 30.13 in1020.3 mb 0.00 in0.0 mm 0.00 in0.0 mm 0.00 in0.0 mm
02:47 PM 82.8°F28.2°C 58.6°F14.8°C 44% 3.1 mph N5.0 kmh N 6.9 mph11.1 kmh 30.13 in1020.3 mb 0.00 in0.0 mm 0.00 in0.0 mm 0.00 in0.0 mm
02:46 PM 82.8°F28.2°C 58.6°F14.8°C 44% 3.8 mph N6.1 kmh N 6.9 mph11.1 kmh 30.13 in1020.3 mb 0.00 in0.0 mm 0.00 in0.0 mm 0.00 in0.0 mm
02:45 PM 82.9°F28.3°C 58.8°F14.9°C 44% 3.8 mph N6.1 kmh N 6.9 mph11.1 kmh 30.13 in1020.3 mb 0.00 in0.0 mm 0.00 in0.0 mm 0.00 in0.0 mm
02:44 PM 82.9°F28.3°C 58.8°F14.9°C 44% 3.8 mph N6.1 kmh N 6.9 mph11.1 kmh 30.13 in1020.3 mb 0.00 in0.0 mm 0.00 in0.0 mm 0.00 in0.0 mm
02:43 PM 82.9°F28.3°C 59.4°F15.2°C 45% 2.2 mph NNE3.5 kmh NNE 6.9 mph11.1 kmh 30.13 in1020.3 mb 0.00 in0.0 mm 0.00 in0.0 mm 0.00 in0.0 mm
02:42 PM 82.9°F28.3°C 59.4°F15.2°C 45% 1.6 mph NNE2.6 kmh NNE 6.9 mph11.1 kmh 30.14 in1020.7 mb 0.00 in0.0 mm 0.00 in0.0 mm 0.00 in0.0 mm
02:41 PM 82.8°F28.2°C 59.3°F15.2°C 45% 1.6 mph NNE2.6 kmh NNE 6.9 mph11.1 kmh 30.14 in1020.7 mb 0.00 in0.0 mm 0.00 in0.0 mm 0.00 in0.0 mm
02:40 PM 82.8°F28.2°C 59.3°F15.2°C 45% 1.6 mph N2.6 kmh N 6.9 mph11.1 kmh 30.14 in1020.7 mb 0.00 in0.0 mm 0.00 in0.0 mm 0.00 in0.0 mm
02:39 PM 82.8°F28.2°C 58.6°F14.8°C 44% 1.6 mph NNE2.6 kmh NNE 6.9 mph11.1 kmh 30.14 in1020.7 mb 0.00 in0.0 mm 0.00 in0.0 mm 0.00 in0.0 mm
02:38 PM 82.9°F28.3°C 58.8°F14.9°C 44% 5.4 mph NNE8.7 kmh NNE 6.9 mph11.1 kmh 30.14 in1020.7 mb 0.00 in0.0 mm 0.00 in0.0 mm 0.00 in0.0 mm
02:37 PM 83.1°F28.4°C 59.6°F15.3°C 45% 5.4 mph N8.7 kmh N 6.9 mph11.1 kmh 30.14 in1020.7 mb 0.00 in0.0 mm 0.00 in0.0 mm 0.00 in0.0 mm
02:36 PM 83.3°F28.5°C 59.7°F15.4°C 45% 3.1 mph N5.0 kmh N 4.5 mph7.2 kmh 30.13 in1020.3 mb 0.00 in0.0 mm 0.00 in0.0 mm 0.00 in0.0 mm
02:35 PM 83.3°F28.5°C 59.7°F15.4°C 45% 0.7 mph N1.1 kmh N 3.8 mph6.1 kmh 30.13 in1020.3 mb 0.00 in0.0 mm 0.00 in0.0 mm 0.00 in0.0 mm
02:34 PM 83.1°F28.4°C 59.6°F15.3°C 45% 1.6 mph N2.6 kmh N 3.8 mph6.1 kmh 30.14 in1020.7 mb 0.00 in0.0 mm 0.00 in0.0 mm 0.00 in0.0 mm
02:33 PM 83.1°F28.4°C 59.6°F15.3°C 45% 1.6 mph N2.6 kmh N 3.8 mph6.1 kmh 30.14 in1020.7 mb 0.00 in0.0 mm 0.00 in0.0 mm 0.00 in0.0 mm
02:32 PM 83.1°F28.4°C 60.2°F15.7°C 46% 1.6 mph N2.6 kmh N 3.8 mph6.1 kmh 30.13 in1020.3 mb 0.00 in0.0 mm 0.00 in0.0 mm 0.00 in0.0 mm
02:31 PM 83.1°F28.4°C 60.2°F15.7°C 46% 1.6 mph NNE2.6 kmh NNE 4.5 mph7.2 kmh 30.14 in1020.7 mb 0.00 in0.0 mm 0.00 in0.0 mm 0.00 in0.0 mm
02:30 PM 82.9°F28.3°C 60.0°F15.6°C 46% 1.6 mph NNE2.6 kmh NNE 4.5 mph7.2 kmh 30.13 in1020.3 mb 0.00 in0.0 mm 0.00 in0.0 mm 0.00 in0.0 mm
02:29 PM 82.9°F28.3°C 60.0°F15.6°C 46% 1.6 mph NNE2.6 kmh NNE 4.5 mph7.2 kmh 30.14 in1020.7 mb 0.00 in0.0 mm 0.00 in0.0 mm 0.00 in0.0 mm
02:28 PM 82.6°F28.1°C 60.3°F15.7°C 47% 2.2 mph NE3.5 kmh NE 4.5 mph7.2 kmh 30.14 in1020.7 mb 0.00 in0.0 mm 0.00 in0.0 mm 0.00 in0.0 mm
02:27 PM 82.6°F28.1°C 60.3°F15.7°C 47% 2.2 mph NNE3.5 kmh NNE 4.5 mph7.2 kmh 30.14 in1020.7 mb 0.00 in0.0 mm 0.00 in0.0 mm 0.00 in0.0 mm
02:26 PM 82.6°F28.1°C 60.3°F15.7°C 47% 0.7 mph N1.1 kmh N 4.5 mph7.2 kmh 30.13 in1020.3 mb 0.00 in0.0 mm 0.00 in0.0 mm 0.00 in0.0 mm
02:25 PM 82.4°F28.0°C 60.1°F15.6°C 47% 0.7 mph N1.1 kmh N 4.5 mph7.2 kmh 30.13 in1020.3 mb 0.00 in0.0 mm 0.00 in0.0 mm 0.00 in0.0 mm
02:24 PM 82.4°F28.0°C 60.1°F15.6°C 47% 0.7 mph N1.1 kmh N 4.5 mph7.2 kmh 30.14 in1020.7 mb 0.00 in0.0 mm 0.00 in0.0 mm 0.00 in0.0 mm
02:23 PM 82.2°F27.9°C 59.4°F15.2°C 46% 1.6 mph N2.6 kmh N 4.5 mph7.2 kmh 30.14 in1020.7 mb 0.00 in0.0 mm 0.00 in0.0 mm 0.00 in0.0 mm
02:22 PM 82.4°F28.0°C 59.5°F15.3°C 46% 1.6 mph N2.6 kmh N 4.5 mph7.2 kmh 30.14 in1020.7 mb 0.00 in0.0 mm 0.00 in0.0 mm 0.00 in0.0 mm
02:21 PM 82.4°F28.0°C 59.5°F15.3°C 46% 3.8 mph N6.1 kmh N 4.5 mph7.2 kmh 30.14 in1020.7 mb 0.00 in0.0 mm 0.00 in0.0 mm 0.00 in0.0 mm
02:20 PM 82.4°F28.0°C 59.5°F15.3°C 46% 1.6 mph NW2.6 kmh NW 3.8 mph6.1 kmh 30.14 in1020.7 mb 0.00 in0.0 mm 0.00 in0.0 mm 0.00 in0.0 mm
02:19 PM 82.2°F27.9°C 60.0°F15.6°C 47% 0.7 mph NW1.1 kmh NW 3.8 mph6.1 kmh 30.14 in1020.7 mb 0.00 in0.0 mm 0.00 in0.0 mm 0.00 in0.0 mm
02:18 PM 82.0°F27.8°C 59.8°F15.4°C 47% 0.7 mph NW1.1 kmh NW 3.8 mph6.1 kmh 30.14 in1020.7 mb 0.00 in0.0 mm 0.00 in0.0 mm 0.00 in0.0 mm
02:17 PM 81.9°F27.7°C 59.7°F15.4°C 47% Calm Calm 3.8 mph6.1 kmh 30.14 in1020.7 mb 0.00 in0.0 mm 0.00 in0.0 mm 0.00 in0.0 mm
02:16 PM 81.9°F27.7°C 60.2°F15.7°C 48% Calm Calm 4.5 mph7.2 kmh 30.14 in1020.7 mb 0.00 in0.0 mm 0.00 in0.0 mm 0.00 in0.0 mm
02:15 PM 81.5°F27.5°C 59.3°F15.2°C 47% 0.7 mph WNW1.1 kmh WNW 4.5 mph7.2 kmh 30.14 in1020.7 mb 0.00 in0.0 mm 0.00 in0.0 mm 0.00 in0.0 mm
02:14 PM 81.5°F27.5°C 59.3°F15.2°C 47% 1.6 mph WNW2.6 kmh WNW 4.5 mph7.2 kmh 30.14 in1020.7 mb 0.00 in0.0 mm 0.00 in0.0 mm 0.00 in0.0 mm
02:13 PM 81.5°F27.5°C 59.3°F15.2°C 47% 2.2 mph WNW3.5 kmh WNW 4.5 mph7.2 kmh 30.14 in1020.7 mb 0.00 in0.0 mm 0.00 in0.0 mm 0.00 in0.0 mm
02:12 PM 81.5°F27.5°C 59.3°F15.2°C 47% 3.1 mph NW5.0 kmh NW 4.5 mph7.2 kmh 30.14 in1020.7 mb 0.00 in0.0 mm 0.00 in0.0 mm 0.00 in0.0 mm
02:11 PM 81.5°F27.5°C 58.7°F14.8°C 46% 1.6 mph WNW2.6 kmh WNW 4.5 mph7.2 kmh 30.14 in1020.7 mb 0.00 in0.0 mm 0.00 in0.0 mm 0.00 in0.0 mm
02:10 PM 81.7°F27.6°C 58.9°F14.9°C 46% 3.1 mph WNW5.0 kmh WNW 4.5 mph7.2 kmh 30.14 in1020.7 mb 0.00 in0.0 mm 0.00 in0.0 mm 0.00 in0.0 mm
02:09 PM 82.0°F27.8°C 59.2°F15.1°C 46% 2.2 mph WNW3.5 kmh WNW 4.5 mph7.2 kmh 30.14 in1020.7 mb 0.00 in0.0 mm 0.00 in0.0 mm 0.00 in0.0 mm
02:08 PM 82.0°F27.8°C 59.2°F15.1°C 46% 2.2 mph WNW3.5 kmh WNW 4.5 mph7.2 kmh 30.14 in1020.7 mb 0.00 in0.0 mm 0.00 in0.0 mm 0.00 in0.0 mm
02:07 PM 82.2°F27.9°C 59.4°F15.2°C 46% 2.2 mph NW3.5 kmh NW 4.5 mph7.2 kmh 30.14 in1020.7 mb 0.00 in0.0 mm 0.00 in0.0 mm 0.00 in0.0 mm
02:06 PM 82.4°F28.0°C 59.5°F15.3°C 46% 3.8 mph NW6.1 kmh NW 4.5 mph7.2 kmh 30.14 in1020.7 mb 0.00 in0.0 mm 0.00 in0.0 mm 0.00 in0.0 mm
02:05 PM 82.6°F28.1°C 59.7°F15.4°C 46% 1.6 mph NW2.6 kmh NW 4.5 mph7.2 kmh 30.14 in1020.7 mb 0.00 in0.0 mm 0.00 in0.0 mm 0.00 in0.0 mm
02:04 PM 82.6°F28.1°C 59.7°F15.4°C 46% 1.6 mph NW2.6 kmh NW 4.5 mph7.2 kmh 30.14 in1020.7 mb 0.00 in0.0 mm 0.00 in0.0 mm 0.00 in0.0 mm
02:03 PM 82.4°F28.0°C 59.5°F15.3°C 46% 0.7 mph NW1.1 kmh NW 5.4 mph8.7 kmh 30.14 in1020.7 mb 0.00 in0.0 mm 0.00 in0.0 mm 0.00 in0.0 mm
02:02 PM 82.4°F28.0°C 59.5°F15.3°C 46% 1.6 mph WNW2.6 kmh WNW 5.4 mph8.7 kmh 30.14 in1020.7 mb 0.00 in0.0 mm 0.00 in0.0 mm 0.00 in0.0 mm
02:01 PM 82.6°F28.1°C 59.7°F15.4°C 46% 2.2 mph NW3.5 kmh NW 5.4 mph8.7 kmh 30.15 in1021.0 mb 0.00 in0.0 mm 0.00 in0.0 mm 0.00 in0.0 mm
02:00 PM 82.6°F28.1°C 59.7°F15.4°C 46% 2.2 mph NW3.5 kmh NW 5.4 mph8.7 kmh 30.14 in1020.7 mb 0.00 in0.0 mm 0.00 in0.0 mm 0.00 in0.0 mm
01:59 PM 82.4°F28.0°C 59.5°F15.3°C 46% 1.6 mph NW2.6 kmh NW 5.4 mph8.7 kmh 30.14 in1020.7 mb 0.00 in0.0 mm 0.00 in0.0 mm 0.00 in0.0 mm
01:58 PM 82.4°F28.0°C 60.1°F15.6°C 47% 2.2 mph NW3.5 kmh NW 6.9 mph11.1 kmh 30.14 in1020.7 mb 0.00 in0.0 mm 0.00 in0.0 mm 0.00 in0.0 mm
01:57 PM 82.2°F27.9°C 60.6°F15.9°C 48% 1.6 mph NW2.6 kmh NW 6.9 mph11.1 kmh 30.14 in1020.7 mb 0.00 in0.0 mm 0.00 in0.0 mm 0.00 in0.0 mm
01:56 PM 82.0°F27.8°C 60.4°F15.8°C 48% 2.2 mph NW3.5 kmh NW 6.9 mph11.1 kmh 30.14 in1020.7 mb 0.00 in0.0 mm 0.00 in0.0 mm 0.00 in0.0 mm
01:55 PM 81.5°F27.5°C 59.3°F15.2°C 47% 3.1 mph NW5.0 kmh NW 6.9 mph11.1 kmh 30.14 in1020.7 mb 0.00 in0.0 mm 0.00 in0.0 mm 0.00 in0.0 mm
01:54 PM 81.5°F27.5°C 59.3°F15.2°C 47% 3.8 mph NW6.1 kmh NW 6.9 mph11.1 kmh 30.14 in1020.7 mb 0.00 in0.0 mm 0.00 in0.0 mm 0.00 in0.0 mm
01:53 PM 81.7°F27.6°C 59.5°F15.3°C 47% 4.5 mph NW7.2 kmh NW 6.9 mph11.1 kmh 30.14 in1020.7 mb 0.00 in0.0 mm 0.00 in0.0 mm 0.00 in0.0 mm
01:52 PM 81.7°F27.6°C 59.5°F15.3°C 47% 2.2 mph NW3.5 kmh NW 6.9 mph11.1 kmh 30.14 in1020.7 mb 0.00 in0.0 mm 0.00 in0.0 mm 0.00 in0.0 mm
01:51 PM 81.7°F27.6°C 59.5°F15.3°C 47% 1.6 mph NW2.6 kmh NW 6.9 mph11.1 kmh 30.14 in1020.7 mb 0.00 in0.0 mm 0.00 in0.0 mm 0.00 in0.0 mm
01:50 PM 81.7°F27.6°C 58.9°F14.9°C 46% 3.1 mph NW5.0 kmh NW 6.9 mph11.1 kmh 30.14 in1020.7 mb 0.00 in0.0 mm 0.00 in0.0 mm 0.00 in0.0 mm
01:49 PM 81.9°F27.7°C 59.1°F15.1°C 46% 3.8 mph NW6.1 kmh NW 6.9 mph11.1 kmh 30.14 in1020.7 mb 0.00 in0.0 mm 0.00 in0.0 mm 0.00 in0.0 mm
01:48 PM 82.6°F28.1°C 59.7°F15.4°C 46% 5.4 mph NW8.7 kmh NW 6.0 mph9.7 kmh 30.14 in1020.7 mb 0.00 in0.0 mm 0.00 in0.0 mm 0.00 in0.0 mm
01:47 PM 82.8°F28.2°C 59.9°F15.5°C 46% 3.1 mph WNW5.0 kmh WNW 4.5 mph7.2 kmh 30.14 in1020.7 mb 0.00 in0.0 mm 0.00 in0.0 mm 0.00 in0.0 mm
01:46 PM 82.9°F28.3°C 59.4°F15.2°C 45% 2.2 mph WSW3.5 kmh WSW 4.5 mph7.2 kmh 30.14 in1020.7 mb 0.00 in0.0 mm 0.00 in0.0 mm 0.00 in0.0 mm
01:45 PM 83.1°F28.4°C 59.6°F15.3°C 45% 3.1 mph SE5.0 kmh SE 4.5 mph7.2 kmh 30.15 in1021.0 mb 0.00 in0.0 mm 0.00 in0.0 mm 0.00 in0.0 mm
01:44 PM 83.5°F28.6°C 59.3°F15.2°C 44% 1.6 mph E2.6 kmh E 4.5 mph7.2 kmh 30.14 in1020.7 mb 0.00 in0.0 mm 0.00 in0.0 mm 0.00 in0.0 mm
01:43 PM 83.5°F28.6°C 59.3°F15.2°C 44% 0.7 mph ESE1.1 kmh ESE 4.5 mph7.2 kmh 30.14 in1020.7 mb 0.00 in0.0 mm 0.00 in0.0 mm 0.00 in0.0 mm
01:42 PM 83.3°F28.5°C 59.1°F15.1°C 44% 1.6 mph ESE2.6 kmh ESE 4.5 mph7.2 kmh 30.14 in1020.7 mb 0.00 in0.0 mm 0.00 in0.0 mm 0.00 in0.0 mm
01:41 PM 83.3°F28.5°C 59.1°F15.1°C 44% 3.1 mph SE5.0 kmh SE 4.5 mph7.2 kmh 30.14 in1020.7 mb 0.00 in0.0 mm 0.00 in0.0 mm 0.00 in0.0 mm
01:40 PM 82.6°F28.1°C 59.1°F15.1°C 45% 0.7 mph SE1.1 kmh SE 3.8 mph6.1 kmh 30.14 in1020.7 mb 0.00 in0.0 mm 0.00 in0.0 mm 0.00 in0.0 mm
01:39 PM 82.2°F27.9°C 58.8°F14.9°C 45% Calm Calm 3.8 mph6.1 kmh 30.14 in1020.7 mb 0.00 in0.0 mm 0.00 in0.0 mm 0.00 in0.0 mm
01:38 PM 81.9°F27.7°C 58.4°F14.7°C 45% Calm Calm 3.8 mph6.1 kmh 30.14 in1020.7 mb 0.00 in0.0 mm 0.00 in0.0 mm 0.00 in0.0 mm
01:37 PM 81.5°F27.5°C 58.1°F14.5°C 45% 1.6 mph SSE2.6 kmh SSE 3.8 mph6.1 kmh 30.14 in1020.7 mb 0.00 in0.0 mm 0.00 in0.0 mm 0.00 in0.0 mm
01:36 PM 81.5°F27.5°C 58.7°F14.8°C 46% 1.6 mph SSE2.6 kmh SSE 3.8 mph6.1 kmh 30.14 in1020.7 mb 0.00 in0.0 mm 0.00 in0.0 mm 0.00 in0.0 mm
01:35 PM 81.3°F27.4°C 60.9°F16.1°C 50% 2.2 mph S3.5 kmh S 3.8 mph6.1 kmh 30.14 in1020.7 mb 0.00 in0.0 mm 0.00 in0.0 mm 0.00 in0.0 mm
01:34 PM 81.3°F27.4°C 60.9°F16.1°C 50% 0.7 mph SSW1.1 kmh SSW 3.8 mph6.1 kmh 30.14 in1020.7 mb 0.00 in0.0 mm 0.00 in0.0 mm 0.00 in0.0 mm
01:33 PM 81.3°F27.4°C 60.9°F16.1°C 50% 0.7 mph SW1.1 kmh SW 3.8 mph6.1 kmh 30.14 in1020.7 mb 0.00 in0.0 mm 0.00 in0.0 mm 0.00 in0.0 mm
01:32 PM 81.5°F27.5°C 58.7°F14.8°C 46% 0.7 mph WSW1.1 kmh WSW 3.8 mph6.1 kmh 30.14 in1020.7 mb 0.00 in0.0 mm 0.00 in0.0 mm 0.00 in0.0 mm
01:31 PM 81.9°F27.7°C 59.1°F15.1°C 46% 2.2 mph W3.5 kmh W 3.8 mph6.1 kmh 30.15 in1021.0 mb 0.00 in0.0 mm 0.00 in0.0 mm 0.00 in0.0 mm
01:30 PM 81.9°F27.7°C 59.7°F15.4°C 47% 2.2 mph W3.5 kmh W 3.8 mph6.1 kmh 30.14 in1020.7 mb 0.00 in0.0 mm 0.00 in0.0 mm 0.00 in0.0 mm
01:29 PM 81.7°F27.6°C 59.5°F15.3°C 47% Calm Calm 4.5 mph7.2 kmh 30.15 in1021.0 mb 0.00 in0.0 mm 0.00 in0.0 mm 0.00 in0.0 mm
01:28 PM 81.3°F27.4°C 61.5°F16.4°C 51% 0.7 mph W1.1 kmh W 4.5 mph7.2 kmh 30.15 in1021.0 mb 0.00 in0.0 mm 0.00 in0.0 mm 0.00 in0.0 mm
01:27 PM 81.0°F27.2°C 61.1°F16.2°C 51% 0.7 mph WSW1.1 kmh WSW 4.5 mph7.2 kmh 30.15 in1021.0 mb 0.00 in0.0 mm 0.00 in0.0 mm 0.00 in0.0 mm
01:26 PM 80.8°F27.1°C 61.0°F16.1°C 51% 0.7 mph WSW1.1 kmh WSW 5.4 mph8.7 kmh 30.14 in1020.7 mb 0.00 in0.0 mm 0.00 in0.0 mm 0.00 in0.0 mm
01:25 PM 80.6°F27.0°C 60.8°F16.0°C 51% 2.2 mph SW3.5 kmh SW 6.9 mph11.1 kmh 30.14 in1020.7 mb 0.00 in0.0 mm 0.00 in0.0 mm 0.00 in0.0 mm
01:24 PM 80.2°F26.8°C 61.0°F16.1°C 52% 0.7 mph SW1.1 kmh SW 6.9 mph11.1 kmh 30.15 in1021.0 mb 0.00 in0.0 mm 0.00 in0.0 mm 0.00 in0.0 mm
01:23 PM 80.2°F26.8°C 61.0°F16.1°C 52% 1.6 mph SW2.6 kmh SW 6.9 mph11.1 kmh 30.14 in1020.7 mb 0.00 in0.0 mm 0.00 in0.0 mm 0.00 in0.0 mm
01:22 PM 80.1°F26.7°C 60.8°F16.0°C 52% 1.6 mph SW2.6 kmh SW 6.9 mph11.1 kmh 30.15 in1021.0 mb 0.00 in0.0 mm 0.00 in0.0 mm 0.00 in0.0 mm
01:21 PM 80.2°F26.8°C 61.0°F16.1°C 52% 2.2 mph SW3.5 kmh SW 6.9 mph11.1 kmh 30.15 in1021.0 mb 0.00 in0.0 mm 0.00 in0.0 mm 0.00 in0.0 mm
01:20 PM 80.2°F26.8°C 61.0°F16.1°C 52% 3.1 mph SW5.0 kmh SW 6.9 mph11.1 kmh 30.15 in1021.0 mb 0.00 in0.0 mm 0.00 in0.0 mm 0.00 in0.0 mm
01:19 PM 80.4°F26.9°C 61.2°F16.2°C 52% 3.8 mph S6.1 kmh S 6.9 mph11.1 kmh 30.15 in1021.0 mb 0.00 in0.0 mm 0.00 in0.0 mm 0.00 in0.0 mm
01:18 PM 80.6°F27.0°C 61.3°F16.3°C 52% 3.1 mph S5.0 kmh S 6.9 mph11.1 kmh 30.15 in1021.0 mb 0.00 in0.0 mm 0.00 in0.0 mm 0.00 in0.0 mm
01:17 PM 80.4°F26.9°C 61.7°F16.5°C 53% 2.2 mph S3.5 kmh S 6.9 mph11.1 kmh 30.15 in1021.0 mb 0.00 in0.0 mm 0.00 in0.0 mm 0.00 in0.0 mm
01:16 PM 80.4°F26.9°C 61.7°F16.5°C 53% 5.4 mph SSE8.7 kmh SSE 6.9 mph11.1 kmh 30.15 in1021.0 mb 0.00 in0.0 mm 0.00 in0.0 mm 0.00 in0.0 mm
01:15 PM 80.2°F26.8°C 62.1°F16.7°C 54% 1.6 mph SSE2.6 kmh SSE 4.5 mph7.2 kmh 30.15 in1021.0 mb 0.00 in0.0 mm 0.00 in0.0 mm 0.00 in0.0 mm
01:14 PM 79.9°F26.6°C 61.7°F16.5°C 54% 1.6 mph S2.6 kmh S 4.5 mph7.2 kmh 30.15 in1021.0 mb 0.00 in0.0 mm 0.00 in0.0 mm 0.00 in0.0 mm
01:13 PM 79.7°F26.5°C 61.6°F16.4°C 54% 0.7 mph S1.1 kmh S 4.5 mph7.2 kmh 30.14 in1020.7 mb 0.00 in0.0 mm 0.00 in0.0 mm 0.00 in0.0 mm
01:12 PM 79.3°F26.3°C 61.2°F16.2°C 54% 2.2 mph S3.5 kmh S 4.5 mph7.2 kmh 30.15 in1021.0 mb 0.00 in0.0 mm 0.00 in0.0 mm 0.00 in0.0 mm
01:11 PM 79.2°F26.2°C 61.1°F16.2°C 54% 2.2 mph SW3.5 kmh SW 4.5 mph7.2 kmh 30.15 in1021.0 mb 0.00 in0.0 mm 0.00 in0.0 mm 0.00 in0.0 mm
01:10 PM 79.2°F26.2°C 61.1°F16.2°C 54% 1.6 mph WSW2.6 kmh WSW 4.5 mph7.2 kmh 30.15 in1021.0 mb 0.00 in0.0 mm 0.00 in0.0 mm 0.00 in0.0 mm
01:09 PM 79.2°F26.2°C 61.1°F16.2°C 54% 3.1 mph WSW5.0 kmh WSW 4.5 mph7.2 kmh 30.15 in1021.0 mb 0.00 in0.0 mm 0.00 in0.0 mm 0.00 in0.0 mm
01:08 PM 79.3°F26.3°C 61.2°F16.2°C 54% 1.6 mph W2.6 kmh W 4.5 mph7.2 kmh 30.15 in1021.0 mb 0.00 in0.0 mm 0.00 in0.0 mm 0.00 in0.0 mm
01:07 PM 79.5°F26.4°C 61.4°F16.3°C 54% 2.2 mph W3.5 kmh W 4.5 mph7.2 kmh 30.15 in1021.0 mb 0.00 in0.0 mm 0.00 in0.0 mm 0.00 in0.0 mm
01:06 PM 80.6°F27.0°C 61.3°F16.3°C 52% 3.1 mph W5.0 kmh W 4.5 mph7.2 kmh 30.15 in1021.0 mb 0.00 in0.0 mm 0.00 in0.0 mm 0.00 in0.0 mm
01:05 PM 80.6°F27.0°C 61.3°F16.3°C 52% 3.1 mph W5.0 kmh W 4.5 mph7.2 kmh 30.15 in1021.0 mb 0.00 in0.0 mm 0.00 in0.0 mm 0.00 in0.0 mm
01:04 PM 80.6°F27.0°C 61.3°F16.3°C 52% 3.1 mph W5.0 kmh W 4.5 mph7.2 kmh 30.15 in1021.0 mb 0.00 in0.0 mm 0.00 in0.0 mm 0.00 in0.0 mm
01:03 PM 80.6°F27.0°C 61.3°F16.3°C 52% 3.1 mph W5.0 kmh W 4.5 mph7.2 kmh 30.15 in1021.0 mb 0.00 in0.0 mm 0.00 in0.0 mm 0.00 in0.0 mm
01:02 PM 80.6°F27.0°C 61.3°F16.3°C 52% 3.1 mph W5.0 kmh W 4.5 mph7.2 kmh 30.15 in1021.0 mb 0.00 in0.0 mm 0.00 in0.0 mm 0.00 in0.0 mm
01:01 PM 80.6°F27.0°C 61.3°F16.3°C 52% 3.1 mph WNW5.0 kmh WNW 4.5 mph7.2 kmh 30.15 in1021.0 mb 0.00 in0.0 mm 0.00 in0.0 mm 0.00 in0.0 mm
01:00 PM 81.0°F27.2°C 61.1°F16.2°C 51% 3.8 mph WNW6.1 kmh WNW 4.5 mph7.2 kmh 30.15 in1021.0 mb 0.00 in0.0 mm 0.00 in0.0 mm 0.00 in0.0 mm
12:59 PM 81.5°F27.5°C 59.9°F15.5°C 48% 3.8 mph WNW6.1 kmh WNW 4.5 mph7.2 kmh 30.15 in1021.0 mb 0.00 in0.0 mm 0.00 in0.0 mm 0.00 in0.0 mm
12:58 PM 81.9°F27.7°C 60.2°F15.7°C 48% 3.8 mph NW6.1 kmh NW 4.5 mph7.2 kmh 30.15 in1021.0 mb 0.00 in0.0 mm 0.00 in0.0 mm 0.00 in0.0 mm
12:57 PM 82.0°F27.8°C 61.0°F16.1°C 49% 3.1 mph NW5.0 kmh NW 3.8 mph6.1 kmh 30.15 in1021.0 mb 0.00 in0.0 mm 0.00 in0.0 mm 0.00 in0.0 mm
12:56 PM 82.0°F27.8°C 61.6°F16.4°C 50% 1.6 mph NNW2.6 kmh NNW 3.1 mph5.0 kmh 30.16 in1021.3 mb 0.00 in0.0 mm 0.00 in0.0 mm 0.00 in0.0 mm
12:55 PM 81.9°F27.7°C 61.4°F16.3°C 50% Calm Calm 3.1 mph5.0 kmh 30.16 in1021.3 mb 0.00 in0.0 mm 0.00 in0.0 mm 0.00 in0.0 mm
12:54 PM 81.7°F27.6°C 61.2°F16.2°C 50% 0.7 mph N1.1 kmh N 3.1 mph5.0 kmh 30.15 in1021.0 mb 0.00 in0.0 mm 0.00 in0.0 mm 0.00 in0.0 mm
12:53 PM 81.5°F27.5°C 61.1°F16.2°C 50% 0.7 mph N1.1 kmh N 3.8 mph6.1 kmh 30.16 in1021.3 mb 0.00 in0.0 mm 0.00 in0.0 mm 0.00 in0.0 mm
12:52 PM 81.3°F27.4°C 62.0°F16.7°C 52% 2.2 mph NNE3.5 kmh NNE 3.8 mph6.1 kmh 30.16 in1021.3 mb 0.00 in0.0 mm 0.00 in0.0 mm 0.00 in0.0 mm
12:51 PM 81.3°F27.4°C 62.0°F16.7°C 52% 0.7 mph NE1.1 kmh NE 3.8 mph6.1 kmh 30.15 in1021.0 mb 0.00 in0.0 mm 0.00 in0.0 mm 0.00 in0.0 mm
12:50 PM 81.3°F27.4°C 62.0°F16.7°C 52% 1.6 mph NE2.6 kmh NE 4.5 mph7.2 kmh 30.16 in1021.3 mb 0.00 in0.0 mm 0.00 in0.0 mm 0.00 in0.0 mm
12:49 PM 81.3°F27.4°C 62.6°F17.0°C 53% 0.7 mph NE1.1 kmh NE 4.5 mph7.2 kmh 30.16 in1021.3 mb 0.00 in0.0 mm 0.00 in0.0 mm 0.00 in0.0 mm
12:48 PM 81.3°F27.4°C 62.6°F17.0°C 53% 1.6 mph NE2.6 kmh NE 4.5 mph7.2 kmh 30.15 in1021.0 mb 0.00 in0.0 mm 0.00 in0.0 mm 0.00 in0.0 mm
12:47 PM 81.3°F27.4°C 62.6°F17.0°C 53% 2.2 mph NNE3.5 kmh NNE 4.5 mph7.2 kmh 30.16 in1021.3 mb 0.00 in0.0 mm 0.00 in0.0 mm 0.00 in0.0 mm
12:46 PM 81.3°F27.4°C 62.0°F16.7°C 52% 1.6 mph N2.6 kmh N 6.9 mph11.1 kmh 30.16 in1021.3 mb 0.00 in0.0 mm 0.00 in0.0 mm 0.00 in0.0 mm
12:45 PM 81.3°F27.4°C 62.0°F16.7°C 52% 2.2 mph N3.5 kmh N 6.9 mph11.1 kmh 30.16 in1021.3 mb 0.00 in0.0 mm 0.00 in0.0 mm 0.00 in0.0 mm
12:44 PM 81.5°F27.5°C 60.5°F15.8°C 49% 3.1 mph N5.0 kmh N 6.9 mph11.1 kmh 30.15 in1021.0 mb 0.00 in0.0 mm 0.00 in0.0 mm 0.00 in0.0 mm
12:43 PM 81.5°F27.5°C 60.5°F15.8°C 49% 1.6 mph NNW2.6 kmh NNW 6.9 mph11.1 kmh 30.16 in1021.3 mb 0.00 in0.0 mm 0.00 in0.0 mm 0.00 in0.0 mm
12:42 PM 81.5°F27.5°C 60.5°F15.8°C 49% 2.2 mph NW3.5 kmh NW 6.9 mph11.1 kmh 30.16 in1021.3 mb 0.00 in0.0 mm 0.00 in0.0 mm 0.00 in0.0 mm
12:41 PM 81.5°F27.5°C 60.5°F15.8°C 49% 3.1 mph NW5.0 kmh NW 6.9 mph11.1 kmh 30.16 in1021.3 mb 0.00 in0.0 mm 0.00 in0.0 mm 0.00 in0.0 mm
12:40 PM 81.5°F27.5°C 60.5°F15.8°C 49% 1.6 mph W2.6 kmh W 6.9 mph11.1 kmh 30.16 in1021.3 mb 0.00 in0.0 mm 0.00 in0.0 mm 0.00 in0.0 mm
12:39 PM 81.7°F27.6°C 60.1°F15.6°C 48% 3.1 mph W5.0 kmh W 6.9 mph11.1 kmh 30.16 in1021.3 mb 0.00 in0.0 mm 0.00 in0.0 mm 0.00 in0.0 mm
12:38 PM 81.7°F27.6°C 59.5°F15.3°C 47% 2.2 mph W3.5 kmh W 6.9 mph11.1 kmh 30.16 in1021.3 mb 0.00 in0.0 mm 0.00 in0.0 mm 0.00 in0.0 mm
12:37 PM 81.9°F27.7°C 59.7°F15.4°C 47% 3.1 mph WSW5.0 kmh WSW 6.9 mph11.1 kmh 30.16 in1021.3 mb 0.00 in0.0 mm 0.00 in0.0 mm 0.00 in0.0 mm
12:36 PM 82.6°F28.1°C 59.7°F15.4°C 46% 2.2 mph S3.5 kmh S 3.8 mph6.1 kmh 30.16 in1021.3 mb 0.00 in0.0 mm 0.00 in0.0 mm 0.00 in0.0 mm
12:35 PM 82.6°F28.1°C 59.1°F15.1°C 45% 0.7 mph S1.1 kmh S 3.8 mph6.1 kmh 30.16 in1021.3 mb 0.00 in0.0 mm 0.00 in0.0 mm 0.00 in0.0 mm
12:34 PM 82.9°F28.3°C 59.4°F15.2°C 45% 3.1 mph SSE5.0 kmh SSE 6.0 mph9.7 kmh 30.16 in1021.3 mb 0.00 in0.0 mm 0.00 in0.0 mm 0.00 in0.0 mm
12:33 PM 83.3°F28.5°C 59.7°F15.4°C 45% 3.1 mph SE5.0 kmh SE 6.0 mph9.7 kmh 30.16 in1021.3 mb 0.00 in0.0 mm 0.00 in0.0 mm 0.00 in0.0 mm
12:32 PM 83.5°F28.6°C 60.5°F15.8°C 46% 1.6 mph E2.6 kmh E 6.0 mph9.7 kmh 30.16 in1021.3 mb 0.00 in0.0 mm 0.00 in0.0 mm 0.00 in0.0 mm
12:31 PM 83.5°F28.6°C 60.5°F15.8°C 46% 1.6 mph E2.6 kmh E 6.0 mph9.7 kmh 30.16 in1021.3 mb 0.00 in0.0 mm 0.00 in0.0 mm 0.00 in0.0 mm
12:30 PM 83.5°F28.6°C 60.5°F15.8°C 46% 1.6 mph E2.6 kmh E 6.0 mph9.7 kmh 30.16 in1021.3 mb 0.00 in0.0 mm 0.00 in0.0 mm 0.00 in0.0 mm
12:29 PM 83.5°F28.6°C 60.5°F15.8°C 46% 0.7 mph E1.1 kmh E 6.0 mph9.7 kmh 30.16 in1021.3 mb 0.00 in0.0 mm 0.00 in0.0 mm 0.00 in0.0 mm
12:28 PM 83.3°F28.5°C 59.7°F15.4°C 45% 2.2 mph E3.5 kmh E 6.0 mph9.7 kmh 30.16 in1021.3 mb 0.00 in0.0 mm 0.00 in0.0 mm 0.00 in0.0 mm
12:27 PM 83.3°F28.5°C 59.7°F15.4°C 45% 3.1 mph ESE5.0 kmh ESE 6.0 mph9.7 kmh 30.16 in1021.3 mb 0.00 in0.0 mm 0.00 in0.0 mm 0.00 in0.0 mm
12:26 PM 83.5°F28.6°C 59.9°F15.5°C 45% 2.2 mph SE3.5 kmh SE 6.0 mph9.7 kmh 30.16 in1021.3 mb 0.00 in0.0 mm 0.00 in0.0 mm 0.00 in0.0 mm
12:25 PM 83.5°F28.6°C 59.9°F15.5°C 45% 3.1 mph SE5.0 kmh SE 6.0 mph9.7 kmh 30.16 in1021.3 mb 0.00 in0.0 mm 0.00 in0.0 mm 0.00 in0.0 mm
12:24 PM 83.7°F28.7°C 60.7°F15.9°C 46% 1.6 mph SE2.6 kmh SE 6.0 mph9.7 kmh 30.16 in1021.3 mb 0.00 in0.0 mm 0.00 in0.0 mm 0.00 in0.0 mm
12:23 PM 83.3°F28.5°C 61.0°F16.1°C 47% 3.8 mph SSE6.1 kmh SSE 6.9 mph11.1 kmh 30.16 in1021.3 mb 0.00 in0.0 mm 0.00 in0.0 mm 0.00 in0.0 mm
12:22 PM 83.1°F28.4°C 61.4°F16.3°C 48% 2.2 mph SSE3.5 kmh SSE 8.3 mph13.4 kmh 30.16 in1021.3 mb 0.00 in0.0 mm 0.00 in0.0 mm 0.00 in0.0 mm
12:21 PM 82.6°F28.1°C 60.9°F16.1°C 48% 1.6 mph SSE2.6 kmh SSE 8.3 mph13.4 kmh 30.16 in1021.3 mb 0.00 in0.0 mm 0.00 in0.0 mm 0.00 in0.0 mm
12:20 PM 81.7°F27.6°C 60.1°F15.6°C 48% 1.6 mph S2.6 kmh S 8.3 mph13.4 kmh 30.16 in1021.3 mb 0.00 in0.0 mm 0.00 in0.0 mm 0.00 in0.0 mm
12:19 PM 81.3°F27.4°C 61.5°F16.4°C 51% 2.2 mph S3.5 kmh S 8.3 mph13.4 kmh 30.16 in1021.3 mb 0.00 in0.0 mm 0.00 in0.0 mm 0.00 in0.0 mm
12:18 PM 81.3°F27.4°C 61.5°F16.4°C 51% 2.2 mph S3.5 kmh S 8.3 mph13.4 kmh 30.16 in1021.3 mb 0.00 in0.0 mm 0.00 in0.0 mm 0.00 in0.0 mm
12:17 PM 81.5°F27.5°C 58.7°F14.8°C 46% 3.8 mph S6.1 kmh S 8.3 mph13.4 kmh 30.16 in1021.3 mb 0.00 in0.0 mm 0.00 in0.0 mm 0.00 in0.0 mm
12:16 PM 82.8°F28.2°C 59.9°F15.5°C 46% 2.2 mph S3.5 kmh S 8.3 mph13.4 kmh 30.16 in1021.3 mb 0.00 in0.0 mm 0.00 in0.0 mm 0.00 in0.0 mm
12:15 PM 82.8°F28.2°C 59.9°F15.5°C 46% 2.2 mph S3.5 kmh S 8.3 mph13.4 kmh 30.16 in1021.3 mb 0.00 in0.0 mm 0.00 in0.0 mm 0.00 in0.0 mm
12:14 PM 82.8°F28.2°C 59.3°F15.2°C 45% 3.1 mph S5.0 kmh S 8.3 mph13.4 kmh 30.16 in1021.3 mb 0.00 in0.0 mm 0.00 in0.0 mm 0.00 in0.0 mm
12:13 PM 82.8°F28.2°C 59.3°F15.2°C 45% 5.4 mph S8.7 kmh S 8.3 mph13.4 kmh 30.16 in1021.3 mb 0.00 in0.0 mm 0.00 in0.0 mm 0.00 in0.0 mm
12:12 PM 83.8°F28.8°C 59.6°F15.3°C 44% 5.4 mph S8.7 kmh S 7.6 mph12.2 kmh 30.16 in1021.3 mb 0.00 in0.0 mm 0.00 in0.0 mm 0.00 in0.0 mm
12:11 PM 84.4°F29.1°C 60.1°F15.6°C 44% 1.6 mph SSE2.6 kmh SSE 5.4 mph8.7 kmh 30.16 in1021.3 mb 0.00 in0.0 mm 0.00 in0.0 mm 0.00 in0.0 mm
12:10 PM 84.6°F29.2°C 60.9°F16.1°C 45% 3.8 mph SE6.1 kmh SE 5.4 mph8.7 kmh 30.16 in1021.3 mb 0.00 in0.0 mm 0.00 in0.0 mm 0.00 in0.0 mm
12:09 PM 84.6°F29.2°C 60.9°F16.1°C 45% 3.1 mph SE5.0 kmh SE 5.4 mph8.7 kmh 30.17 in1021.7 mb 0.00 in0.0 mm 0.00 in0.0 mm 0.00 in0.0 mm
12:08 PM 84.4°F29.1°C 61.3°F16.3°C 46% 2.2 mph SE3.5 kmh SE 4.5 mph7.2 kmh 30.16 in1021.3 mb 0.00 in0.0 mm 0.00 in0.0 mm 0.00 in0.0 mm
12:07 PM 84.0°F28.9°C 61.0°F16.1°C 46% 1.6 mph SE2.6 kmh SE 4.5 mph7.2 kmh 30.16 in1021.3 mb 0.00 in0.0 mm 0.00 in0.0 mm 0.00 in0.0 mm
12:06 PM 83.8°F28.8°C 60.8°F16.0°C 46% 1.6 mph SSE2.6 kmh SSE 4.5 mph7.2 kmh 30.16 in1021.3 mb 0.00 in0.0 mm 0.00 in0.0 mm 0.00 in0.0 mm
12:05 PM 83.5°F28.6°C 60.5°F15.8°C 46% 1.6 mph SE2.6 kmh SE 4.5 mph7.2 kmh 30.16 in1021.3 mb 0.00 in0.0 mm 0.00 in0.0 mm 0.00 in0.0 mm
12:04 PM 83.5°F28.6°C 59.9°F15.5°C 45% 1.6 mph SSE2.6 kmh SSE 4.5 mph7.2 kmh 30.17 in1021.7 mb 0.00 in0.0 mm 0.00 in0.0 mm 0.00 in0.0 mm
12:03 PM 83.5°F28.6°C 60.5°F15.8°C 46% 3.1 mph S5.0 kmh S 4.5 mph7.2 kmh 30.17 in1021.7 mb 0.00 in0.0 mm 0.00 in0.0 mm 0.00 in0.0 mm
12:02 PM 83.7°F28.7°C 60.7°F15.9°C 46% 3.1 mph S5.0 kmh S 4.5 mph7.2 kmh 30.17 in1021.7 mb 0.00 in0.0 mm 0.00 in0.0 mm 0.00 in0.0 mm
12:01 PM 83.7°F28.7°C 61.3°F16.3°C 47% 1.6 mph SW2.6 kmh SW 4.5 mph7.2 kmh 30.17 in1021.7 mb 0.00 in0.0 mm 0.00 in0.0 mm 0.00 in0.0 mm
12:00 PM 83.3°F28.5°C 61.6°F16.4°C 48% 3.1 mph WSW5.0 kmh WSW 4.5 mph7.2 kmh 30.17 in1021.7 mb 0.00 in0.0 mm 0.00 in0.0 mm 0.00 in0.0 mm
11:59 AM 82.9°F28.3°C 61.2°F16.2°C 48% 0.7 mph WSW1.1 kmh WSW 4.5 mph7.2 kmh 30.17 in1021.7 mb 0.00 in0.0 mm 0.00 in0.0 mm 0.00 in0.0 mm
11:58 AM 82.4°F28.0°C 61.3°F16.3°C 49% 0.7 mph WSW1.1 kmh WSW 4.5 mph7.2 kmh 30.16 in1021.3 mb 0.00 in0.0 mm 0.00 in0.0 mm 0.00 in0.0 mm
11:57 AM 82.2°F27.9°C 61.2°F16.2°C 49% 1.6 mph WSW2.6 kmh WSW 4.5 mph7.2 kmh 30.17 in1021.7 mb 0.00 in0.0 mm 0.00 in0.0 mm 0.00 in0.0 mm
11:56 AM 81.9°F27.7°C 61.4°F16.3°C 50% Calm Calm 4.5 mph7.2 kmh 30.17 in1021.7 mb 0.00 in0.0 mm 0.00 in0.0 mm 0.00 in0.0 mm
11:55 AM 81.5°F27.5°C 61.1°F16.2°C 50% 0.7 mph WSW1.1 kmh WSW 4.5 mph7.2 kmh 30.17 in1021.7 mb 0.00 in0.0 mm 0.00 in0.0 mm 0.00 in0.0 mm
11:54 AM 81.3°F27.4°C 62.0°F16.7°C 52% 1.6 mph WSW2.6 kmh WSW 4.5 mph7.2 kmh 30.17 in1021.7 mb 0.00 in0.0 mm 0.00 in0.0 mm 0.00 in0.0 mm
11:53 AM 81.3°F27.4°C 62.0°F16.7°C 52% 2.2 mph WSW3.5 kmh WSW 6.9 mph11.1 kmh 30.17 in1021.7 mb 0.00 in0.0 mm 0.00 in0.0 mm 0.00 in0.0 mm
11:52 AM 81.1°F27.3°C 61.8°F16.6°C 52% 3.8 mph WSW6.1 kmh WSW 6.9 mph11.1 kmh 30.17 in1021.7 mb 0.00 in0.0 mm 0.00 in0.0 mm 0.00 in0.0 mm
11:51 AM 81.1°F27.3°C 61.8°F16.6°C 52% 3.1 mph SW5.0 kmh SW 6.9 mph11.1 kmh 30.17 in1021.7 mb 0.00 in0.0 mm 0.00 in0.0 mm 0.00 in0.0 mm
11:50 AM 81.0°F27.2°C 62.2°F16.8°C 53% 1.6 mph SW2.6 kmh SW 6.9 mph11.1 kmh 30.17 in1021.7 mb 0.00 in0.0 mm 0.00 in0.0 mm 0.00 in0.0 mm
11:49 AM 81.0°F27.2°C 61.7°F16.5°C 52% 3.1 mph SSW5.0 kmh SSW 6.9 mph11.1 kmh 30.17 in1021.7 mb 0.00 in0.0 mm 0.00 in0.0 mm 0.00 in0.0 mm
11:48 AM 80.8°F27.1°C 62.1°F16.7°C 53% 2.2 mph SSW3.5 kmh SSW 6.9 mph11.1 kmh 30.17 in1021.7 mb 0.00 in0.0 mm 0.00 in0.0 mm 0.00 in0.0 mm
11:47 AM 80.6°F27.0°C 61.9°F16.6°C 53% 2.2 mph SSW3.5 kmh SSW 6.9 mph11.1 kmh 30.17 in1021.7 mb 0.00 in0.0 mm 0.00 in0.0 mm 0.00 in0.0 mm
11:46 AM 80.4°F26.9°C 61.7°F16.5°C 53% 2.2 mph S3.5 kmh S 6.9 mph11.1 kmh 30.17 in1021.7 mb 0.00 in0.0 mm 0.00 in0.0 mm 0.00 in0.0 mm
11:45 AM 80.2°F26.8°C 61.6°F16.4°C 53% 1.6 mph S2.6 kmh S 6.9 mph11.1 kmh 30.17 in1021.7 mb 0.00 in0.0 mm 0.00 in0.0 mm 0.00 in0.0 mm
11:44 AM 80.2°F26.8°C 61.6°F16.4°C 53% 1.6 mph S2.6 kmh S 6.9 mph11.1 kmh 30.17 in1021.7 mb 0.00 in0.0 mm 0.00 in0.0 mm 0.00 in0.0 mm
11:43 AM 80.4°F26.9°C 61.7°F16.5°C 53% 4.5 mph SSW7.2 kmh SSW 6.9 mph11.1 kmh 30.17 in1021.7 mb 0.00 in0.0 mm 0.00 in0.0 mm 0.00 in0.0 mm
11:42 AM 80.6°F27.0°C 61.9°F16.6°C 53% 3.1 mph SSW5.0 kmh SSW 6.0 mph9.7 kmh 30.17 in1021.7 mb 0.00 in0.0 mm 0.00 in0.0 mm 0.00 in0.0 mm
11:41 AM 80.8°F27.1°C 62.1°F16.7°C 53% 3.8 mph SW6.1 kmh SW 6.0 mph9.7 kmh 30.17 in1021.7 mb 0.00 in0.0 mm 0.00 in0.0 mm 0.00 in0.0 mm
11:40 AM 81.1°F27.3°C 61.8°F16.6°C 52% 3.8 mph WSW6.1 kmh WSW 5.4 mph8.7 kmh 30.17 in1021.7 mb 0.00 in0.0 mm 0.00 in0.0 mm 0.00 in0.0 mm
11:39 AM 81.3°F27.4°C 62.0°F16.7°C 52% 3.8 mph WSW6.1 kmh WSW 5.4 mph8.7 kmh 30.17 in1021.7 mb 0.00 in0.0 mm 0.00 in0.0 mm 0.00 in0.0 mm
11:38 AM 81.3°F27.4°C 62.6°F17.0°C 53% 2.2 mph WSW3.5 kmh WSW 5.4 mph8.7 kmh 30.17 in1021.7 mb 0.00 in0.0 mm 0.00 in0.0 mm 0.00 in0.0 mm
11:37 AM 81.1°F27.3°C 62.4°F16.9°C 53% 0.7 mph WSW1.1 kmh WSW 5.4 mph8.7 kmh 30.18 in1022.0 mb 0.00 in0.0 mm 0.00 in0.0 mm 0.00 in0.0 mm
11:36 AM 81.0°F27.2°C 62.2°F16.8°C 53% 1.6 mph WSW2.6 kmh WSW 5.4 mph8.7 kmh 30.17 in1021.7 mb 0.00 in0.0 mm 0.00 in0.0 mm 0.00 in0.0 mm
11:35 AM 81.0°F27.2°C 62.2°F16.8°C 53% 1.6 mph WSW2.6 kmh WSW 5.4 mph8.7 kmh 30.17 in1021.7 mb 0.00 in0.0 mm 0.00 in0.0 mm 0.00 in0.0 mm
11:34 AM 81.0°F27.2°C 62.2°F16.8°C 53% 0.7 mph WSW1.1 kmh WSW 5.4 mph8.7 kmh 30.18 in1022.0 mb 0.00 in0.0 mm 0.00 in0.0 mm 0.00 in0.0 mm
11:33 AM 80.8°F27.1°C 62.1°F16.7°C 53% 2.2 mph SW3.5 kmh SW 5.4 mph8.7 kmh 30.17 in1021.7 mb 0.00 in0.0 mm 0.00 in0.0 mm 0.00 in0.0 mm
11:32 AM 80.6°F27.0°C 61.3°F16.3°C 52% 3.1 mph SW5.0 kmh SW 5.4 mph8.7 kmh 30.17 in1021.7 mb 0.00 in0.0 mm 0.00 in0.0 mm 0.00 in0.0 mm
11:31 AM 80.8°F27.1°C 61.5°F16.4°C 52% 3.8 mph SW6.1 kmh SW 5.4 mph8.7 kmh 30.18 in1022.0 mb 0.00 in0.0 mm 0.00 in0.0 mm 0.00 in0.0 mm
11:30 AM 81.0°F27.2°C 61.7°F16.5°C 52% 2.2 mph SW3.5 kmh SW 5.4 mph8.7 kmh 30.18 in1022.0 mb 0.00 in0.0 mm 0.00 in0.0 mm 0.00 in0.0 mm
11:29 AM 81.1°F27.3°C 61.8°F16.6°C 52% 3.8 mph SSW6.1 kmh SSW 5.4 mph8.7 kmh 30.18 in1022.0 mb 0.00 in0.0 mm 0.00 in0.0 mm 0.00 in0.0 mm
11:28 AM 81.1°F27.3°C 61.8°F16.6°C 52% 3.1 mph SSW5.0 kmh SSW 5.4 mph8.7 kmh 30.17 in1021.7 mb 0.00 in0.0 mm 0.00 in0.0 mm 0.00 in0.0 mm
11:27 AM 81.5°F27.5°C 60.5°F15.8°C 49% 2.2 mph SSE3.5 kmh SSE 5.4 mph8.7 kmh 30.18 in1022.0 mb 0.00 in0.0 mm 0.00 in0.0 mm 0.00 in0.0 mm
11:26 AM 81.7°F27.6°C 60.7°F15.9°C 49% 1.6 mph SE2.6 kmh SE 5.4 mph8.7 kmh 30.18 in1022.0 mb 0.00 in0.0 mm 0.00 in0.0 mm 0.00 in0.0 mm
11:25 AM 81.9°F27.7°C 60.8°F16.0°C 49% 2.2 mph ESE3.5 kmh ESE 5.4 mph8.7 kmh 30.18 in1022.0 mb 0.00 in0.0 mm 0.00 in0.0 mm 0.00 in0.0 mm
11:24 AM 82.0°F27.8°C 61.6°F16.4°C 50% 3.8 mph E6.1 kmh E 5.4 mph8.7 kmh 30.18 in1022.0 mb 0.00 in0.0 mm 0.00 in0.0 mm 0.00 in0.0 mm
11:23 AM 82.0°F27.8°C 61.6°F16.4°C 50% Calm Calm 4.5 mph7.2 kmh 30.18 in1022.0 mb 0.00 in0.0 mm 0.00 in0.0 mm 0.00 in0.0 mm
11:22 AM 81.7°F27.6°C 61.8°F16.6°C 51% 1.6 mph NE2.6 kmh NE 4.5 mph7.2 kmh 30.17 in1021.7 mb 0.00 in0.0 mm 0.00 in0.0 mm 0.00 in0.0 mm
11:21 AM 81.5°F27.5°C 61.1°F16.2°C 50% 1.6 mph NE2.6 kmh NE 4.5 mph7.2 kmh 30.18 in1022.0 mb 0.00 in0.0 mm 0.00 in0.0 mm 0.00 in0.0 mm
11:20 AM 81.3°F27.4°C 63.1°F17.3°C 54% 2.2 mph NE3.5 kmh NE 4.5 mph7.2 kmh 30.18 in1022.0 mb 0.00 in0.0 mm 0.00 in0.0 mm 0.00 in0.0 mm
11:19 AM 81.1°F27.3°C 62.9°F17.2°C 54% Calm Calm 4.5 mph7.2 kmh 30.18 in1022.0 mb 0.00 in0.0 mm 0.00 in0.0 mm 0.00 in0.0 mm
11:18 AM 81.0°F27.2°C 62.7°F17.1°C 54% 2.2 mph NE3.5 kmh NE 4.5 mph7.2 kmh 30.18 in1022.0 mb 0.00 in0.0 mm 0.00 in0.0 mm 0.00 in0.0 mm
11:17 AM 81.1°F27.3°C 62.9°F17.2°C 54% 3.8 mph NE6.1 kmh NE 4.5 mph7.2 kmh 30.18 in1022.0 mb 0.00 in0.0 mm 0.00 in0.0 mm 0.00 in0.0 mm
11:16 AM 81.0°F27.2°C 63.8°F17.7°C 56% Calm Calm 4.5 mph7.2 kmh 30.17 in1021.7 mb 0.00 in0.0 mm 0.00 in0.0 mm 0.00 in0.0 mm
11:15 AM 80.6°F27.0°C 63.5°F17.5°C 56% 0.7 mph NNE1.1 kmh NNE 4.5 mph7.2 kmh 30.18 in1022.0 mb 0.00 in0.0 mm 0.00 in0.0 mm 0.00 in0.0 mm
11:14 AM 80.2°F26.8°C 63.1°F17.3°C 56% 1.6 mph ENE2.6 kmh ENE 4.5 mph7.2 kmh 30.18 in1022.0 mb 0.00 in0.0 mm 0.00 in0.0 mm 0.00 in0.0 mm
11:13 AM 80.1°F26.7°C 62.9°F17.2°C 56% 1.6 mph E2.6 kmh E 4.5 mph7.2 kmh 30.18 in1022.0 mb 0.00 in0.0 mm 0.00 in0.0 mm 0.00 in0.0 mm
11:12 AM 79.7°F26.5°C 62.6°F17.0°C 56% 0.7 mph E1.1 kmh E 4.5 mph7.2 kmh 30.18 in1022.0 mb 0.00 in0.0 mm 0.00 in0.0 mm 0.00 in0.0 mm
11:11 AM 79.3°F26.3°C 62.3°F16.8°C 56% 2.2 mph ESE3.5 kmh ESE 4.5 mph7.2 kmh 30.18 in1022.0 mb 0.00 in0.0 mm 0.00 in0.0 mm 0.00 in0.0 mm
11:10 AM 79.2°F26.2°C 62.6°F17.0°C 57% 2.2 mph SE3.5 kmh SE 4.5 mph7.2 kmh 30.18 in1022.0 mb 0.00 in0.0 mm 0.00 in0.0 mm 0.00 in0.0 mm
11:09 AM 79.0°F26.1°C 62.4°F16.9°C 57% 0.7 mph SE1.1 kmh SE 7.6 mph12.2 kmh 30.18 in1022.0 mb 0.00 in0.0 mm 0.00 in0.0 mm 0.00 in0.0 mm
11:08 AM 78.8°F26.0°C 62.3°F16.8°C 57% 1.6 mph SE2.6 kmh SE 7.6 mph12.2 kmh 30.18 in1022.0 mb 0.00 in0.0 mm 0.00 in0.0 mm 0.00 in0.0 mm
11:07 AM 78.3°F25.7°C 61.8°F16.6°C 57% 1.6 mph SE2.6 kmh SE 7.6 mph12.2 kmh 30.18 in1022.0 mb 0.00 in0.0 mm 0.00 in0.0 mm 0.00 in0.0 mm
11:06 AM 77.4°F25.2°C 61.4°F16.3°C 58% 3.1 mph SE5.0 kmh SE 7.6 mph12.2 kmh 30.18 in1022.0 mb 0.00 in0.0 mm 0.00 in0.0 mm 0.00 in0.0 mm
11:05 AM 77.4°F25.2°C 61.4°F16.3°C 58% 3.1 mph SE5.0 kmh SE 7.6 mph12.2 kmh 30.18 in1022.0 mb 0.00 in0.0 mm 0.00 in0.0 mm 0.00 in0.0 mm
11:04 AM 77.4°F25.2°C 61.4°F16.3°C 58% 3.1 mph SE5.0 kmh SE 7.6 mph12.2 kmh 30.18 in1022.0 mb 0.00 in0.0 mm 0.00 in0.0 mm 0.00 in0.0 mm
11:03 AM 77.4°F25.2°C 61.4°F16.3°C 58% 3.1 mph SE5.0 kmh SE 7.6 mph12.2 kmh 30.18 in1022.0 mb 0.00 in0.0 mm 0.00 in0.0 mm 0.00 in0.0 mm
11:02 AM 77.4°F25.2°C 61.4°F16.3°C 58% 3.1 mph SE5.0 kmh SE 7.6 mph12.2 kmh 30.18 in1022.0 mb 0.00 in0.0 mm 0.00 in0.0 mm 0.00 in0.0 mm
11:01 AM 77.4°F25.2°C 61.4°F16.3°C 58% 3.1 mph SE5.0 kmh SE 7.6 mph12.2 kmh 30.18 in1022.0 mb 0.00 in0.0 mm 0.00 in0.0 mm 0.00 in0.0 mm
11:00 AM 77.4°F25.2°C 61.4°F16.3°C 58% 3.1 mph SE5.0 kmh SE 7.6 mph12.2 kmh 30.18 in1022.0 mb 0.00 in0.0 mm 0.00 in0.0 mm 0.00 in0.0 mm
10:59 AM 78.1°F25.6°C 62.1°F16.7°C 58% 4.5 mph SE7.2 kmh SE 6.0 mph9.7 kmh 30.18 in1022.0 mb 0.00 in0.0 mm 0.00 in0.0 mm 0.00 in0.0 mm
10:58 AM 78.1°F25.6°C 62.1°F16.7°C 58% 2.2 mph SSE3.5 kmh SSE 3.8 mph6.1 kmh 30.18 in1022.0 mb 0.00 in0.0 mm 0.00 in0.0 mm 0.00 in0.0 mm
10:57 AM 78.1°F25.6°C 62.1°F16.7°C 58% 2.2 mph SE3.5 kmh SE 3.8 mph6.1 kmh 30.18 in1022.0 mb 0.00 in0.0 mm 0.00 in0.0 mm 0.00 in0.0 mm
10:56 AM 78.1°F25.6°C 62.6°F17.0°C 59% 3.1 mph SE5.0 kmh SE 3.8 mph6.1 kmh 30.18 in1022.0 mb 0.00 in0.0 mm 0.00 in0.0 mm 0.00 in0.0 mm
10:55 AM 77.7°F25.4°C 62.2°F16.8°C 59% 2.2 mph SE3.5 kmh SE 3.8 mph6.1 kmh 30.18 in1022.0 mb 0.00 in0.0 mm 0.00 in0.0 mm 0.00 in0.0 mm
10:54 AM 77.7°F25.4°C 62.2°F16.8°C 59% 2.2 mph SSE3.5 kmh SSE 3.8 mph6.1 kmh 30.18 in1022.0 mb 0.00 in0.0 mm 0.00 in0.0 mm 0.00 in0.0 mm
10:53 AM 77.5°F25.3°C 61.6°F16.4°C 58% 1.6 mph SSE2.6 kmh SSE 3.8 mph6.1 kmh 30.18 in1022.0 mb 0.00 in0.0 mm 0.00 in0.0 mm 0.00 in0.0 mm
10:52 AM 77.5°F25.3°C 61.6°F16.4°C 58% 1.6 mph SSE2.6 kmh SSE 3.8 mph6.1 kmh 30.18 in1022.0 mb 0.00 in0.0 mm 0.00 in0.0 mm 0.00 in0.0 mm
10:51 AM 77.5°F25.3°C 61.1°F16.2°C 57% 1.6 mph SSE2.6 kmh SSE 3.8 mph6.1 kmh 30.18 in1022.0 mb 0.00 in0.0 mm 0.00 in0.0 mm 0.00 in0.0 mm
10:50 AM 77.7°F25.4°C 61.3°F16.3°C 57% 2.2 mph SSE3.5 kmh SSE 3.8 mph6.1 kmh 30.18 in1022.0 mb 0.00 in0.0 mm 0.00 in0.0 mm 0.00 in0.0 mm
10:49 AM 77.9°F25.5°C 61.4°F16.3°C 57% 2.2 mph SSE3.5 kmh SSE 3.8 mph6.1 kmh 30.18 in1022.0 mb 0.00 in0.0 mm 0.00 in0.0 mm 0.00 in0.0 mm
10:48 AM 78.1°F25.6°C 62.1°F16.7°C 58% 1.6 mph SE2.6 kmh SE 3.8 mph6.1 kmh 30.18 in1022.0 mb 0.00 in0.0 mm 0.00 in0.0 mm 0.00 in0.0 mm
10:47 AM 78.3°F25.7°C 62.3°F16.8°C 58% 0.7 mph SE1.1 kmh SE 3.8 mph6.1 kmh 30.18 in1022.0 mb 0.00 in0.0 mm 0.00 in0.0 mm 0.00 in0.0 mm
10:46 AM 78.3°F25.7°C 62.3°F16.8°C 58% 1.6 mph SE2.6 kmh SE 3.8 mph6.1 kmh 30.18 in1022.0 mb 0.00 in0.0 mm 0.00 in0.0 mm 0.00 in0.0 mm
10:45 AM 78.3°F25.7°C 62.3°F16.8°C 58% 0.7 mph SE1.1 kmh SE 3.8 mph6.1 kmh 30.19 in1022.4 mb 0.00 in0.0 mm 0.00 in0.0 mm 0.00 in0.0 mm
10:44 AM 78.3°F25.7°C 62.3°F16.8°C 58% 2.2 mph SE3.5 kmh SE 3.8 mph6.1 kmh 30.18 in1022.0 mb 0.00 in0.0 mm 0.00 in0.0 mm 0.00 in0.0 mm
10:43 AM 78.4°F25.8°C 62.9°F17.2°C 59% Calm Calm 3.8 mph6.1 kmh 30.18 in1022.0 mb 0.00 in0.0 mm 0.00 in0.0 mm 0.00 in0.0 mm
10:42 AM 78.4°F25.8°C 62.9°F17.2°C 59% 2.2 mph E3.5 kmh E 3.8 mph6.1 kmh 30.18 in1022.0 mb 0.00 in0.0 mm 0.00 in0.0 mm 0.00 in0.0 mm
10:41 AM 78.4°F25.8°C 62.9°F17.2°C 59% 2.2 mph E3.5 kmh E 3.8 mph6.1 kmh 30.18 in1022.0 mb 0.00 in0.0 mm 0.00 in0.0 mm 0.00 in0.0 mm
10:40 AM 78.3°F25.7°C 63.2°F17.3°C 60% 0.7 mph E1.1 kmh E 3.8 mph6.1 kmh 30.18 in1022.0 mb 0.00 in0.0 mm 0.00 in0.0 mm 0.00 in0.0 mm
10:39 AM 78.3°F25.7°C 63.2°F17.3°C 60% 1.6 mph E2.6 kmh E 3.8 mph6.1 kmh 30.18 in1022.0 mb 0.00 in0.0 mm 0.00 in0.0 mm 0.00 in0.0 mm
10:38 AM 78.1°F25.6°C 63.1°F17.3°C 60% 0.7 mph E1.1 kmh E 3.8 mph6.1 kmh 30.18 in1022.0 mb 0.00 in0.0 mm 0.00 in0.0 mm 0.00 in0.0 mm
10:37 AM 78.1°F25.6°C 63.1°F17.3°C 60% 1.6 mph E2.6 kmh E 3.8 mph6.1 kmh 30.19 in1022.4 mb 0.00 in0.0 mm 0.00 in0.0 mm 0.00 in0.0 mm
10:36 AM 77.9°F25.5°C 62.9°F17.2°C 60% 2.2 mph E3.5 kmh E 3.8 mph6.1 kmh 30.18 in1022.0 mb 0.00 in0.0 mm 0.00 in0.0 mm 0.00 in0.0 mm
10:35 AM 77.7°F25.4°C 62.7°F17.1°C 60% Calm Calm 3.8 mph6.1 kmh 30.18 in1022.0 mb 0.00 in0.0 mm 0.00 in0.0 mm 0.00 in0.0 mm
10:34 AM 77.4°F25.2°C 62.4°F16.9°C 60% 2.2 mph E3.5 kmh E 3.8 mph6.1 kmh 30.18 in1022.0 mb 0.00 in0.0 mm 0.00 in0.0 mm 0.00 in0.0 mm
10:33 AM 77.4°F25.2°C 62.4°F16.9°C 60% 2.2 mph E3.5 kmh E 4.5 mph7.2 kmh 30.18 in1022.0 mb 0.00 in0.0 mm 0.00 in0.0 mm 0.00 in0.0 mm
10:32 AM 77.4°F25.2°C 62.9°F17.2°C 61% 2.2 mph E3.5 kmh E 4.5 mph7.2 kmh 30.18 in1022.0 mb 0.00 in0.0 mm 0.00 in0.0 mm 0.00 in0.0 mm
10:31 AM 77.2°F25.1°C 62.7°F17.1°C 61% 2.2 mph E3.5 kmh E 4.5 mph7.2 kmh 30.19 in1022.4 mb 0.00 in0.0 mm 0.00 in0.0 mm 0.00 in0.0 mm
10:30 AM 77.0°F25.0°C 62.5°F16.9°C 61% 2.2 mph E3.5 kmh E 4.5 mph7.2 kmh 30.19 in1022.4 mb 0.00 in0.0 mm 0.00 in0.0 mm 0.00 in0.0 mm
10:29 AM 77.0°F25.0°C 62.5°F16.9°C 61% 3.1 mph E5.0 kmh E 4.5 mph7.2 kmh 30.18 in1022.0 mb 0.00 in0.0 mm 0.00 in0.0 mm 0.00 in0.0 mm
10:28 AM 76.8°F24.9°C 62.3°F16.8°C 61% 1.6 mph E2.6 kmh E 4.5 mph7.2 kmh 30.18 in1022.0 mb 0.00 in0.0 mm 0.00 in0.0 mm 0.00 in0.0 mm
10:27 AM 76.6°F24.8°C 62.2°F16.8°C 61% 1.6 mph E2.6 kmh E 4.5 mph7.2 kmh 30.18 in1022.0 mb 0.00 in0.0 mm 0.00 in0.0 mm 0.00 in0.0 mm
10:26 AM 76.6°F24.8°C 62.2°F16.8°C 61% 2.2 mph E3.5 kmh E 4.5 mph7.2 kmh 30.18 in1022.0 mb 0.00 in0.0 mm 0.00 in0.0 mm 0.00 in0.0 mm
10:25 AM 76.6°F24.8°C 62.2°F16.8°C 61% 0.7 mph E1.1 kmh E 4.5 mph7.2 kmh 30.19 in1022.4 mb 0.00 in0.0 mm 0.00 in0.0 mm 0.00 in0.0 mm
10:24 AM 76.6°F24.8°C 62.2°F16.8°C 61% 3.8 mph E6.1 kmh E 4.5 mph7.2 kmh 30.18 in1022.0 mb 0.00 in0.0 mm 0.00 in0.0 mm 0.00 in0.0 mm
10:23 AM 76.6°F24.8°C 62.6°F17.0°C 62% 3.1 mph ENE5.0 kmh ENE 4.5 mph7.2 kmh 30.19 in1022.4 mb 0.00 in0.0 mm 0.00 in0.0 mm 0.00 in0.0 mm
10:22 AM 76.5°F24.7°C 62.5°F16.9°C 62% 3.8 mph ENE6.1 kmh ENE 4.5 mph7.2 kmh 30.18 in1022.0 mb 0.00 in0.0 mm 0.00 in0.0 mm 0.00 in0.0 mm
10:21 AM 76.5°F24.7°C 62.9°F17.2°C 63% 3.1 mph NE5.0 kmh NE 4.5 mph7.2 kmh 30.18 in1022.0 mb 0.00 in0.0 mm 0.00 in0.0 mm 0.00 in0.0 mm
10:20 AM 76.1°F24.5°C 62.6°F17.0°C 63% 0.7 mph NE1.1 kmh NE 4.5 mph7.2 kmh 30.18 in1022.0 mb 0.00 in0.0 mm 0.00 in0.0 mm 0.00 in0.0 mm
10:19 AM 75.7°F24.3°C 62.2°F16.8°C 63% Calm Calm 5.4 mph8.7 kmh 30.19 in1022.4 mb 0.00 in0.0 mm 0.00 in0.0 mm 0.00 in0.0 mm
10:18 AM 75.6°F24.2°C 62.1°F16.7°C 63% 0.7 mph NE1.1 kmh NE 5.4 mph8.7 kmh 30.18 in1022.0 mb 0.00 in0.0 mm 0.00 in0.0 mm 0.00 in0.0 mm
10:17 AM 75.6°F24.2°C 62.1°F16.7°C 63% 1.6 mph NE2.6 kmh NE 5.4 mph8.7 kmh 30.18 in1022.0 mb 0.00 in0.0 mm 0.00 in0.0 mm 0.00 in0.0 mm
10:16 AM 75.6°F24.2°C 62.1°F16.7°C 63% 2.2 mph NE3.5 kmh NE 5.4 mph8.7 kmh 30.18 in1022.0 mb 0.00 in0.0 mm 0.00 in0.0 mm 0.00 in0.0 mm
10:15 AM 75.4°F24.1°C 61.9°F16.6°C 63% 2.2 mph NE3.5 kmh NE 5.4 mph8.7 kmh 30.19 in1022.4 mb 0.00 in0.0 mm 0.00 in0.0 mm 0.00 in0.0 mm
10:14 AM 75.4°F24.1°C 61.9°F16.6°C 63% 2.2 mph NE3.5 kmh NE 5.4 mph8.7 kmh 30.18 in1022.0 mb 0.00 in0.0 mm 0.00 in0.0 mm 0.00 in0.0 mm
10:13 AM 75.2°F24.0°C 62.2°F16.8°C 64% 1.6 mph NE2.6 kmh NE 5.4 mph8.7 kmh 30.19 in1022.4 mb 0.00 in0.0 mm 0.00 in0.0 mm 0.00 in0.0 mm
10:12 AM 74.8°F23.8°C 61.8°F16.6°C 64% 1.6 mph NE2.6 kmh NE 5.4 mph8.7 kmh 30.18 in1022.0 mb 0.00 in0.0 mm 0.00 in0.0 mm 0.00 in0.0 mm
10:11 AM 74.8°F23.8°C 61.8°F16.6°C 64% 1.6 mph NE2.6 kmh NE 5.4 mph8.7 kmh 30.19 in1022.4 mb 0.00 in0.0 mm 0.00 in0.0 mm 0.00 in0.0 mm
10:10 AM 74.8°F23.8°C 61.8°F16.6°C 64% 3.8 mph NE6.1 kmh NE 5.4 mph8.7 kmh 30.19 in1022.4 mb 0.00 in0.0 mm 0.00 in0.0 mm 0.00 in0.0 mm
10:09 AM 74.8°F23.8°C 61.8°F16.6°C 64% 3.8 mph NE6.1 kmh NE 5.4 mph8.7 kmh 30.19 in1022.4 mb 0.00 in0.0 mm 0.00 in0.0 mm 0.00 in0.0 mm
10:08 AM 74.8°F23.8°C 61.8°F16.6°C 64% 2.2 mph NE3.5 kmh NE 4.5 mph7.2 kmh 30.19 in1022.4 mb 0.00 in0.0 mm 0.00 in0.0 mm 0.00 in0.0 mm
10:07 AM 74.8°F23.8°C 61.8°F16.6°C 64% 0.7 mph NE1.1 kmh NE 4.5 mph7.2 kmh 30.19 in1022.4 mb 0.00 in0.0 mm 0.00 in0.0 mm 0.00 in0.0 mm
10:06 AM 75.0°F23.9°C 62.0°F16.7°C 64% 3.1 mph NE5.0 kmh NE 4.5 mph7.2 kmh 30.19 in1022.4 mb 0.00 in0.0 mm 0.00 in0.0 mm 0.00 in0.0 mm
10:05 AM 75.0°F23.9°C 62.0°F16.7°C 64% 3.1 mph NE5.0 kmh NE 4.5 mph7.2 kmh 30.19 in1022.4 mb 0.00 in0.0 mm 0.00 in0.0 mm 0.00 in0.0 mm
10:04 AM 75.2°F24.0°C 62.2°F16.8°C 64% 3.1 mph NE5.0 kmh NE 4.5 mph7.2 kmh 30.19 in1022.4 mb 0.00 in0.0 mm 0.00 in0.0 mm 0.00 in0.0 mm
10:03 AM 75.2°F24.0°C 62.2°F16.8°C 64% 1.6 mph E2.6 kmh E 5.4 mph8.7 kmh 30.18 in1022.0 mb 0.00 in0.0 mm 0.00 in0.0 mm 0.00 in0.0 mm
10:02 AM 75.0°F23.9°C 62.5°F16.9°C 65% 2.2 mph E3.5 kmh E 5.4 mph8.7 kmh 30.19 in1022.4 mb 0.00 in0.0 mm 0.00 in0.0 mm 0.00 in0.0 mm
10:01 AM 75.0°F23.9°C 62.5°F16.9°C 65% 1.6 mph E2.6 kmh E 5.4 mph8.7 kmh 30.19 in1022.4 mb 0.00 in0.0 mm 0.00 in0.0 mm 0.00 in0.0 mm
10:00 AM 75.0°F23.9°C 62.9°F17.2°C 66% 2.2 mph E3.5 kmh E 5.4 mph8.7 kmh 30.19 in1022.4 mb 0.00 in0.0 mm 0.00 in0.0 mm 0.00 in0.0 mm
09:59 AM 74.8°F23.8°C 62.7°F17.1°C 66% 3.1 mph ESE5.0 kmh ESE 5.4 mph8.7 kmh 30.19 in1022.4 mb 0.00 in0.0 mm 0.00 in0.0 mm 0.00 in0.0 mm
09:58 AM 74.5°F23.6°C 62.8°F17.1°C 67% 2.2 mph ESE3.5 kmh ESE 5.4 mph8.7 kmh 30.19 in1022.4 mb 0.00 in0.0 mm 0.00 in0.0 mm 0.00 in0.0 mm
09:57 AM 74.3°F23.5°C 62.6°F17.0°C 67% 1.6 mph ESE2.6 kmh ESE 5.4 mph8.7 kmh 30.19 in1022.4 mb 0.00 in0.0 mm 0.00 in0.0 mm 0.00 in0.0 mm
09:56 AM 73.9°F23.3°C 62.3°F16.8°C 67% 1.6 mph ESE2.6 kmh ESE 5.4 mph8.7 kmh 30.19 in1022.4 mb 0.00 in0.0 mm 0.00 in0.0 mm 0.00 in0.0 mm
09:55 AM 73.8°F23.2°C 62.1°F16.7°C 67% 2.2 mph SE3.5 kmh SE 5.4 mph8.7 kmh 30.19 in1022.4 mb 0.00 in0.0 mm 0.00 in0.0 mm 0.00 in0.0 mm
09:54 AM 73.8°F23.2°C 62.1°F16.7°C 67% 2.2 mph SE3.5 kmh SE 5.4 mph8.7 kmh 30.19 in1022.4 mb 0.00 in0.0 mm 0.00 in0.0 mm 0.00 in0.0 mm
09:53 AM 73.8°F23.2°C 62.1°F16.7°C 67% 3.8 mph E6.1 kmh E 5.4 mph8.7 kmh 30.19 in1022.4 mb 0.00 in0.0 mm 0.00 in0.0 mm 0.00 in0.0 mm
09:52 AM 73.8°F23.2°C 62.5°F16.9°C 68% 1.6 mph NE2.6 kmh NE 5.4 mph8.7 kmh 30.19 in1022.4 mb 0.00 in0.0 mm 0.00 in0.0 mm 0.00 in0.0 mm
09:51 AM 73.8°F23.2°C 62.5°F16.9°C 68% 3.1 mph SSW5.0 kmh SSW 5.4 mph8.7 kmh 30.19 in1022.4 mb 0.00 in0.0 mm 0.00 in0.0 mm 0.00 in0.0 mm
09:50 AM 73.8°F23.2°C 63.0°F17.2°C 69% 3.8 mph NW6.1 kmh NW 5.4 mph8.7 kmh 30.19 in1022.4 mb 0.00 in0.0 mm 0.00 in0.0 mm 0.00 in0.0 mm
09:49 AM 73.8°F23.2°C 63.0°F17.2°C 69% 2.2 mph NNE3.5 kmh NNE 5.3 mph8.5 kmh 30.19 in1022.4 mb 0.00 in0.0 mm 0.00 in0.0 mm 0.00 in0.0 mm